Wetterdaten: Sonntag, 14.10.2018
Datum Zeit Temp. Aussen Temp. o. S. +5cm Feuchte Auss Luftdruck Regen Sonnenschein Regendauer Solar Windben Empfang
14.10.2018 00:00 19,1 C 17,8 C 16,7 C 68 % 1011,9 hPa 0,0 l/m 0 min 0 min 0 W/m 9,7 km/h (2 Bft) 97,87 %
14.10.2018 00:02 19,0 C 17,8 C 16,7 C 68 % 1011,9 hPa 0,0 l/m 0 min 0 min 0 W/m 6,4 km/h (2 Bft) 94,87 %
14.10.2018 00:04 19,0 C 17,8 C 16,7 C 68 % 1012,0 hPa 0,0 l/m 0 min 0 min 0 W/m 16,1 km/h (3 Bft) 97,87 %
14.10.2018 00:08 18,9 C 17,8 C 16,7 C 68 % 1012,0 hPa 0,0 l/m 0 min 0 min 0 W/m 6,4 km/h (2 Bft) 97,85 %
14.10.2018 00:10 18,9 C 17,8 C 16,7 C 68 % 1012,0 hPa 0,0 l/m 0 min 0 min 0 W/m 6,4 km/h (2 Bft) 97,87 %
14.10.2018 00:12 18,9 C 17,8 C 16,7 C 68 % 1012,0 hPa 0,0 l/m 0 min 0 min 0 W/m 6,4 km/h (2 Bft) 100,00 %
14.10.2018 00:14 18,9 C 17,8 C 16,7 C 68 % 1012,0 hPa 0,0 l/m 0 min 0 min 0 W/m 3,2 km/h (1 Bft) 100,00 %
14.10.2018 00:16 18,9 C 17,8 C 16,7 C 68 % 1012,0 hPa 0,0 l/m 0 min 0 min 0 W/m 3,2 km/h (1 Bft) 97,87 %
14.10.2018 00:18 18,8 C 17,2 C 16,7 C 68 % 1012,0 hPa 0,0 l/m 0 min 0 min 0 W/m 0,0 km/h (0 Bft) 97,83 %
14.10.2018 00:20 18,8 C 17,2 C 16,7 C 69 % 1012,0 hPa 0,0 l/m 0 min 0 min 0 W/m 0,0 km/h (0 Bft) 100,00 %
14.10.2018 00:22 18,8 C 17,2 C 16,7 C 69 % 1012,0 hPa 0,0 l/m 0 min 0 min 0 W/m 6,4 km/h (2 Bft) 100,00 %
14.10.2018 00:24 18,7 C 17,2 C 16,7 C 69 % 1012,0 hPa 0,0 l/m 0 min 0 min 0 W/m 3,2 km/h (1 Bft) 100,00 %
14.10.2018 00:26 18,7 C 17,2 C 16,1 C 69 % 1012,0 hPa 0,0 l/m 0 min 0 min 0 W/m 3,2 km/h (1 Bft) 97,87 %
14.10.2018 00:28 18,7 C 17,2 C 16,1 C 69 % 1012,0 hPa 0,0 l/m 0 min 0 min 0 W/m 6,4 km/h (2 Bft) 100,00 %
14.10.2018 00:30 18,6 C 17,2 C 16,1 C 69 % 1011,9 hPa 0,0 l/m 0 min 0 min 0 W/m 6,4 km/h (2 Bft) 100,00 %
14.10.2018 00:32 18,6 C 17,2 C 16,1 C 69 % 1011,9 hPa 0,0 l/m 0 min 0 min 0 W/m 12,9 km/h (3 Bft) 100,00 %
14.10.2018 00:34 18,5 C 17,2 C 16,1 C 69 % 1011,9 hPa 0,0 l/m 0 min 0 min 0 W/m 6,4 km/h (2 Bft) 100,00 %
14.10.2018 00:38 18,4 C 17,2 C 16,1 C 70 % 1011,8 hPa 0,0 l/m 0 min 0 min 0 W/m 9,7 km/h (2 Bft) 100,00 %
14.10.2018 00:40 18,4 C 17,2 C 16,1 C 70 % 1011,8 hPa 0,0 l/m 0 min 0 min 0 W/m 12,9 km/h (3 Bft) 100,00 %
14.10.2018 00:42 18,4 C 17,2 C 16,1 C 70 % 1011,8 hPa 0,0 l/m 0 min 0 min 0 W/m 9,7 km/h (2 Bft) 97,87 %
14.10.2018 00:44 18,3 C 17,2 C 16,1 C 70 % 1011,8 hPa 0,0 l/m 0 min 0 min 0 W/m 12,9 km/h (3 Bft) 97,83 %
14.10.2018 00:46 18,3 C 17,2 C 16,7 C 70 % 1011,8 hPa 0,0 l/m 0 min 0 min 0 W/m 9,7 km/h (2 Bft) 100,00 %
14.10.2018 00:48 18,3 C 17,2 C 16,1 C 70 % 1011,8 hPa 0,0 l/m 0 min 0 min 0 W/m 9,7 km/h (2 Bft) 100,00 %
14.10.2018 00:50 18,2 C 17,2 C 16,1 C 71 % 1011,7 hPa 0,0 l/m 0 min 0 min 0 W/m 6,4 km/h (2 Bft) 97,87 %
14.10.2018 00:52 18,2 C 17,2 C 16,1 C 71 % 1011,7 hPa 0,0 l/m 0 min 0 min 0 W/m 9,7 km/h (2 Bft) 100,00 %
14.10.2018 00:54 18,2 C 17,2 C 16,1 C 71 % 1011,7 hPa 0,0 l/m 0 min 0 min 0 W/m 6,4 km/h (2 Bft) 100,00 %
14.10.2018 00:56 18,2 C 17,2 C 16,1 C 71 % 1011,7 hPa 0,0 l/m 0 min 0 min 0 W/m 9,7 km/h (2 Bft) 100,00 %
14.10.2018 00:58 18,1 C 17,2 C 16,1 C 71 % 1011,6 hPa 0,0 l/m 0 min 0 min 0 W/m 12,9 km/h (3 Bft) 97,87 %
14.10.2018 01:00 18,1 C 17,2 C 16,1 C 71 % 1011,7 hPa 0,0 l/m 0 min 0 min 0 W/m 6,4 km/h (2 Bft) 97,87 %
14.10.2018 01:02 18,1 C 16,7 C 16,1 C 71 % 1011,7 hPa 0,0 l/m 0 min 0 min 0 W/m 9,7 km/h (2 Bft) 97,87 %
14.10.2018 01:04 18,1 C 16,7 C 16,1 C 71 % 1011,6 hPa 0,0 l/m 0 min 0 min 0 W/m 9,7 km/h (2 Bft) 100,00 %
14.10.2018 01:08 18,0 C 16,7 C 16,1 C 71 % 1011,6 hPa 0,0 l/m 0 min 0 min 0 W/m 6,4 km/h (2 Bft) 97,56 %
14.10.2018 01:10 18,0 C 16,7 C 16,1 C 71 % 1011,6 hPa 0,0 l/m 0 min 0 min 0 W/m 9,7 km/h (2 Bft) 97,83 %
14.10.2018 01:12 17,9 C 16,7 C 16,1 C 71 % 1011,6 hPa 0,0 l/m 0 min 0 min 0 W/m 9,7 km/h (2 Bft) 97,87 %
14.10.2018 01:14 17,9 C 16,7 C 16,1 C 71 % 1011,5 hPa 0,0 l/m 0 min 0 min 0 W/m 6,4 km/h (2 Bft) 95,74 %
14.10.2018 01:16 17,9 C 16,7 C 16,1 C 71 % 1011,5 hPa 0,0 l/m 0 min 0 min 0 W/m 12,9 km/h (3 Bft) 96,08 %
14.10.2018 01:18 17,9 C 16,7 C 16,1 C 72 % 1011,5 hPa 0,0 l/m 0 min 0 min 0 W/m 6,4 km/h (2 Bft) 97,87 %
14.10.2018 01:20 17,8 C 16,7 C 15,6 C 72 % 1011,5 hPa 0,0 l/m 0 min 0 min 0 W/m 6,4 km/h (2 Bft) 96,55 %
14.10.2018 01:22 17,8 C 16,7 C 15,6 C 72 % 1011,5 hPa 0,0 l/m 0 min 0 min 0 W/m 6,4 km/h (2 Bft) 100,00 %
14.10.2018 01:24 17,8 C 16,7 C 15,6 C 72 % 1011,5 hPa 0,0 l/m 0 min 0 min 0 W/m 3,2 km/h (1 Bft) 97,87 %
14.10.2018 01:26 17,7 C 16,7 C 15,6 C 72 % 1011,5 hPa 0,0 l/m 0 min 0 min 0 W/m 6,4 km/h (2 Bft) 95,74 %
14.10.2018 01:28 17,7 C 16,7 C 15,6 C 72 % 1011,5 hPa 0,0 l/m 0 min 0 min 0 W/m 9,7 km/h (2 Bft) 97,87 %
14.10.2018 01:30 17,7 C 16,7 C 15,6 C 72 % 1011,5 hPa 0,0 l/m 0 min 0 min 0 W/m 6,4 km/h (2 Bft) 95,74 %
14.10.2018 01:32 17,7 C 16,7 C 15,6 C 72 % 1011,5 hPa 0,0 l/m 0 min 0 min 0 W/m 9,7 km/h (2 Bft) 97,96 %
14.10.2018 01:34 17,7 C 16,7 C 15,6 C 72 % 1011,4 hPa 0,0 l/m 0 min 0 min 0 W/m 6,4 km/h (2 Bft) 97,87 %
14.10.2018 01:38 17,6 C 16,7 C 15,6 C 72 % 1011,4 hPa 0,0 l/m 0 min 0 min 0 W/m 9,7 km/h (2 Bft) 97,87 %
14.10.2018 01:40 17,6 C 16,7 C 15,6 C 72 % 1011,4 hPa 0,0 l/m 0 min 0 min 0 W/m 9,7 km/h (2 Bft) 97,87 %
14.10.2018 01:42 17,5 C 16,7 C 15,6 C 72 % 1011,3 hPa 0,0 l/m 0 min 0 min 0 W/m 6,4 km/h (2 Bft) 97,87 %
14.10.2018 01:44 17,5 C 16,1 C 15,6 C 73 % 1011,3 hPa 0,0 l/m 0 min 0 min 0 W/m 9,7 km/h (2 Bft) 97,83 %
14.10.2018 01:46 17,5 C 16,1 C 15,6 C 73 % 1011,3 hPa 0,0 l/m 0 min 0 min 0 W/m 6,4 km/h (2 Bft) 94,00 %
14.10.2018 01:48 17,4 C 16,1 C 15,6 C 73 % 1011,2 hPa 0,0 l/m 0 min 0 min 0 W/m 6,4 km/h (2 Bft) 97,87 %
14.10.2018 01:50 17,4 C 16,1 C 15,6 C 73 % 1011,2 hPa 0,0 l/m 0 min 0 min 0 W/m 6,4 km/h (2 Bft) 97,87 %
14.10.2018 01:52 17,4 C 16,1 C 15,6 C 73 % 1011,2 hPa 0,0 l/m 0 min 0 min 0 W/m 6,4 km/h (2 Bft) 100,00 %
14.10.2018 01:54 17,3 C 16,1 C 15,6 C 73 % 1011,2 hPa 0,0 l/m 0 min 0 min 0 W/m 9,7 km/h (2 Bft) 100,00 %
14.10.2018 01:56 17,3 C 16,1 C 15,6 C 73 % 1011,2 hPa 0,0 l/m 0 min 0 min 0 W/m 9,7 km/h (2 Bft) 97,87 %
14.10.2018 01:58 17,3 C 16,1 C 15,6 C 73 % 1011,2 hPa 0,0 l/m 0 min 0 min 0 W/m 9,7 km/h (2 Bft) 97,87 %
14.10.2018 02:00 17,3 C 16,1 C 15,6 C 74 % 1011,1 hPa 0,0 l/m 0 min 0 min 0 W/m 9,7 km/h (2 Bft) 100,00 %
14.10.2018 02:02 17,2 C 16,1 C 15,6 C 74 % 1011,1 hPa 0,0 l/m 0 min 0 min 0 W/m 9,7 km/h (2 Bft) 97,92 %
14.10.2018 02:04 17,2 C 16,1 C 15,6 C 74 % 1011,1 hPa 0,0 l/m 0 min 0 min 0 W/m 6,4 km/h (2 Bft) 95,74 %
14.10.2018 02:08 17,1 C 16,1 C 15,6 C 74 % 1011,0 hPa 0,0 l/m 0 min 0 min 0 W/m 12,9 km/h (3 Bft) 94,62 %
14.10.2018 02:10 17,1 C 16,1 C 15,6 C 74 % 1010,9 hPa 0,0 l/m 0 min 0 min 0 W/m 9,7 km/h (2 Bft) 95,74 %
14.10.2018 02:12 17,1 C 16,1 C 15,6 C 74 % 1010,9 hPa 0,0 l/m 0 min 0 min 0 W/m 6,4 km/h (2 Bft) 95,74 %
14.10.2018 02:14 17,1 C 16,1 C 15,6 C 74 % 1011,0 hPa 0,0 l/m 0 min 0 min 0 W/m 9,7 km/h (2 Bft) 95,74 %
14.10.2018 02:16 17,0 C 16,1 C 15,0 C 74 % 1010,9 hPa 0,0 l/m 0 min 0 min 0 W/m 6,4 km/h (2 Bft) 96,00 %
14.10.2018 02:18 17,0 C 16,1 C 15,0 C 74 % 1010,9 hPa 0,0 l/m 0 min 0 min 0 W/m 12,9 km/h (3 Bft) 95,74 %
14.10.2018 02:20 16,9 C 16,1 C 15,0 C 74 % 1010,9 hPa 0,0 l/m 0 min 0 min 0 W/m 16,1 km/h (3 Bft) 95,74 %
14.10.2018 02:22 16,9 C 16,1 C 15,0 C 74 % 1010,8 hPa 0,0 l/m 0 min 0 min 0 W/m 6,4 km/h (2 Bft) 95,74 %
14.10.2018 02:24 16,9 C 16,1 C 15,0 C 75 % 1010,8 hPa 0,0 l/m 0 min 0 min 0 W/m 12,9 km/h (3 Bft) 93,62 %
14.10.2018 02:26 16,9 C 16,1 C 15,0 C 75 % 1010,8 hPa 0,0 l/m 0 min 0 min 0 W/m 12,9 km/h (3 Bft) 97,83 %
14.10.2018 02:28 16,9 C 16,1 C 15,0 C 75 % 1010,8 hPa 0,0 l/m 0 min 0 min 0 W/m 9,7 km/h (2 Bft) 95,74 %
14.10.2018 02:30 16,9 C 16,1 C 15,0 C 75 % 1010,8 hPa 0,0 l/m 0 min 0 min 0 W/m 9,7 km/h (2 Bft) 95,74 %
14.10.2018 02:32 16,8 C 15,6 C 15,0 C 75 % 1010,8 hPa 0,0 l/m 0 min 0 min 0 W/m 6,4 km/h (2 Bft) 95,74 %
14.10.2018 02:34 16,8 C 16,1 C 15,0 C 75 % 1010,8 hPa 0,0 l/m 0 min 0 min 0 W/m 12,9 km/h (3 Bft) 95,74 %
14.10.2018 02:38 16,8 C 16,1 C 15,0 C 75 % 1010,9 hPa 0,0 l/m 0 min 0 min 0 W/m 9,7 km/h (2 Bft) 95,70 %
14.10.2018 02:40 16,8 C 15,6 C 15,0 C 75 % 1010,9 hPa 0,0 l/m 0 min 0 min 0 W/m 9,7 km/h (2 Bft) 93,62 %
14.10.2018 02:42 16,8 C 16,1 C 15,0 C 75 % 1010,8 hPa 0,0 l/m 0 min 0 min 0 W/m 9,7 km/h (2 Bft) 93,62 %
14.10.2018 02:44 16,7 C 16,1 C 15,0 C 75 % 1010,8 hPa 0,0 l/m 0 min 0 min 0 W/m 9,7 km/h (2 Bft) 95,74 %
14.10.2018 02:46 16,7 C 15,6 C 15,0 C 75 % 1010,8 hPa 0,0 l/m 0 min 0 min 0 W/m 6,4 km/h (2 Bft) 95,74 %
14.10.2018 02:48 16,7 C 15,6 C 15,0 C 75 % 1010,9 hPa 0,0 l/m 0 min 0 min 0 W/m 6,4 km/h (2 Bft) 95,74 %
14.10.2018 02:50 16,7 C 15,6 C 15,0 C 75 % 1010,8 hPa 0,0 l/m 0 min 0 min 0 W/m 9,7 km/h (2 Bft) 95,65 %
14.10.2018 02:52 16,7 C 16,1 C 15,0 C 75 % 1010,8 hPa 0,0 l/m 0 min 0 min 0 W/m 9,7 km/h (2 Bft) 95,74 %
14.10.2018 02:54 16,7 C 15,6 C 15,0 C 75 % 1010,8 hPa 0,0 l/m 0 min 0 min 0 W/m 6,4 km/h (2 Bft) 97,87 %
14.10.2018 02:56 16,7 C 16,1 C 15,0 C 75 % 1010,8 hPa 0,0 l/m 0 min 0 min 0 W/m 12,9 km/h (3 Bft) 97,87 %
14.10.2018 02:58 16,7 C 16,1 C 15,0 C 76 % 1010,8 hPa 0,0 l/m 0 min 0 min 0 W/m 6,4 km/h (2 Bft) 95,74 %
14.10.2018 03:00 16,6 C 15,6 C 15,0 C 76 % 1010,7 hPa 0,0 l/m 0 min 0 min 0 W/m 6,4 km/h (2 Bft) 97,87 %
14.10.2018 03:02 16,6 C 15,6 C 15,0 C 76 % 1010,7 hPa 0,0 l/m 0 min 0 min 0 W/m 12,9 km/h (3 Bft) 97,83 %
14.10.2018 03:04 16,6 C 15,6 C 15,0 C 76 % 1010,7 hPa 0,0 l/m 0 min 0 min 0 W/m 6,4 km/h (2 Bft) 100,00 %
14.10.2018 03:08 16,6 C 15,6 C 15,0 C 76 % 1010,7 hPa 0,0 l/m 0 min 0 min 0 W/m 6,4 km/h (2 Bft) 97,65 %
14.10.2018 03:10 16,6 C 15,6 C 15,0 C 76 % 1010,7 hPa 0,0 l/m 0 min 0 min 0 W/m 12,9 km/h (3 Bft) 100,00 %
14.10.2018 03:12 16,6 C 15,6 C 15,0 C 76 % 1010,7 hPa 0,0 l/m 0 min 0 min 0 W/m 9,7 km/h (2 Bft) 97,87 %
14.10.2018 03:14 16,6 C 16,1 C 15,0 C 76 % 1010,7 hPa 0,0 l/m 0 min 0 min 0 W/m 12,9 km/h (3 Bft) 100,00 %
14.10.2018 03:16 16,6 C 16,1 C 15,0 C 76 % 1010,6 hPa 0,0 l/m 0 min 0 min 0 W/m 9,7 km/h (2 Bft) 97,83 %
14.10.2018 03:18 16,6 C 15,6 C 15,0 C 76 % 1010,6 hPa 0,0 l/m 0 min 0 min 0 W/m 12,9 km/h (3 Bft) 100,00 %
14.10.2018 03:20 16,6 C 15,6 C 15,0 C 76 % 1010,6 hPa 0,0 l/m 0 min 0 min 0 W/m 9,7 km/h (2 Bft) 97,87 %
14.10.2018 03:22 16,6 C 15,6 C 15,0 C 76 % 1010,5 hPa 0,0 l/m 0 min 0 min 0 W/m 9,7 km/h (2 Bft) 100,00 %
14.10.2018 03:24 16,6 C 15,6 C 15,0 C 76 % 1010,5 hPa 0,0 l/m 0 min 0 min 0 W/m 6,4 km/h (2 Bft) 100,00 %
14.10.2018 03:26 16,5 C 15,6 C 15,0 C 76 % 1010,4 hPa 0,0 l/m 0 min 0 min 0 W/m 9,7 km/h (2 Bft) 100,00 %
14.10.2018 03:28 16,5 C 15,6 C 15,0 C 76 % 1010,4 hPa 0,0 l/m 0 min 0 min 0 W/m 12,9 km/h (3 Bft) 100,00 %
14.10.2018 03:30 16,5 C 15,6 C 15,0 C 76 % 1010,4 hPa 0,0 l/m 0 min 0 min 0 W/m 6,4 km/h (2 Bft) 100,00 %
14.10.2018 03:32 16,4 C 15,6 C 15,0 C 76 % 1010,3 hPa 0,0 l/m 0 min 0 min 0 W/m 9,7 km/h (2 Bft) 100,00 %
14.10.2018 03:34 16,4 C 15,6 C 15,0 C 76 % 1010,3 hPa 0,0 l/m 0 min 0 min 0 W/m 6,4 km/h (2 Bft) 100,00 %
14.10.2018 03:38 16,4 C 15,6 C 15,0 C 76 % 1010,3 hPa 0,0 l/m 0 min 0 min 0 W/m 9,7 km/h (2 Bft) 98,94 %
14.10.2018 03:40 16,4 C 15,6 C 15,0 C 76 % 1010,3 hPa 0,0 l/m 0 min 0 min 0 W/m 9,7 km/h (2 Bft) 100,00 %
14.10.2018 03:42 16,4 C 15,6 C 15,0 C 76 % 1010,3 hPa 0,0 l/m 0 min 0 min 0 W/m 9,7 km/h (2 Bft) 100,00 %
14.10.2018 03:44 16,4 C 15,6 C 15,0 C 76 % 1010,2 hPa 0,0 l/m 0 min 0 min 0 W/m 9,7 km/h (2 Bft) 97,87 %
14.10.2018 03:46 16,3 C 15,6 C 15,0 C 77 % 1010,2 hPa 0,0 l/m 0 min 0 min 0 W/m 9,7 km/h (2 Bft) 97,87 %
14.10.2018 03:48 16,3 C 15,6 C 15,0 C 77 % 1010,2 hPa 0,0 l/m 0 min 0 min 0 W/m 9,7 km/h (2 Bft) 100,00 %
14.10.2018 03:50 16,3 C 15,6 C 15,0 C 77 % 1010,2 hPa 0,0 l/m 0 min 0 min 0 W/m 6,4 km/h (2 Bft) 97,83 %
14.10.2018 03:52 16,3 C 15,6 C 15,0 C 77 % 1010,2 hPa 0,0 l/m 0 min 0 min 0 W/m 6,4 km/h (2 Bft) 95,83 %
14.10.2018 03:54 16,3 C 15,6 C 15,0 C 77 % 1010,1 hPa 0,0 l/m 0 min 0 min 0 W/m 9,7 km/h (2 Bft) 97,87 %
14.10.2018 03:56 16,3 C 15,6 C 15,0 C 77 % 1010,1 hPa 0,0 l/m 0 min 0 min 0 W/m 9,7 km/h (2 Bft) 97,87 %
14.10.2018 03:58 16,2 C 15,6 C 15,0 C 77 % 1010,1 hPa 0,0 l/m 0 min 0 min 0 W/m 9,7 km/h (2 Bft) 97,87 %
14.10.2018 04:00 16,2 C 15,0 C 15,0 C 77 % 1010,1 hPa 0,0 l/m 0 min 0 min 0 W/m 9,7 km/h (2 Bft) 97,87 %
14.10.2018 04:02 16,2 C 15,0 C 15,0 C 77 % 1010,1 hPa 0,0 l/m 0 min 0 min 0 W/m 6,4 km/h (2 Bft) 100,00 %
14.10.2018 04:04 16,2 C 15,0 C 15,0 C 77 % 1010,1 hPa 0,0 l/m 0 min 0 min 0 W/m 6,4 km/h (2 Bft) 100,00 %
14.10.2018 04:08 16,1 C 15,0 C 14,4 C 77 % 1010,0 hPa 0,0 l/m 0 min 0 min 0 W/m 9,7 km/h (2 Bft) 96,91 %
14.10.2018 04:10 16,1 C 15,0 C 14,4 C 77 % 1009,9 hPa 0,0 l/m 0 min 0 min 0 W/m 9,7 km/h (2 Bft) 97,87 %
14.10.2018 04:12 16,1 C 15,0 C 14,4 C 77 % 1009,8 hPa 0,0 l/m 0 min 0 min 0 W/m 9,7 km/h (2 Bft) 97,87 %
14.10.2018 04:14 16,1 C 15,0 C 14,4 C 77 % 1009,9 hPa 0,0 l/m 0 min 0 min 0 W/m 9,7 km/h (2 Bft) 97,87 %
14.10.2018 04:16 16,1 C 15,0 C 14,4 C 77 % 1009,8 hPa 0,0 l/m 0 min 0 min 0 W/m 9,7 km/h (2 Bft) 97,96 %
14.10.2018 04:18 16,1 C 15,0 C 14,4 C 77 % 1009,8 hPa 0,0 l/m 0 min 0 min 0 W/m 9,7 km/h (2 Bft) 97,87 %
14.10.2018 04:20 16,0 C 15,0 C 14,4 C 77 % 1009,8 hPa 0,0 l/m 0 min 0 min 0 W/m 9,7 km/h (2 Bft) 97,87 %
14.10.2018 04:22 16,0 C 15,0 C 14,4 C 77 % 1009,8 hPa 0,0 l/m 0 min 0 min 0 W/m 9,7 km/h (2 Bft) 97,87 %
14.10.2018 04:24 16,0 C 15,0 C 14,4 C 77 % 1009,8 hPa 0,0 l/m 0 min 0 min 0 W/m 12,9 km/h (3 Bft) 97,87 %
14.10.2018 04:26 16,0 C 15,6 C 15,0 C 77 % 1009,8 hPa 0,0 l/m 0 min 0 min 0 W/m 12,9 km/h (3 Bft) 97,83 %
14.10.2018 04:28 16,0 C 15,6 C 15,0 C 77 % 1009,7 hPa 0,0 l/m 0 min 0 min 0 W/m 12,9 km/h (3 Bft) 95,74 %
14.10.2018 04:30 16,0 C 15,6 C 15,0 C 78 % 1009,7 hPa 0,0 l/m 0 min 0 min 0 W/m 9,7 km/h (2 Bft) 95,74 %
14.10.2018 04:32 16,0 C 15,6 C 15,0 C 78 % 1009,7 hPa 0,0 l/m 0 min 0 min 0 W/m 6,4 km/h (2 Bft) 97,22 %
14.10.2018 04:34 15,9 C 15,6 C 15,0 C 78 % 1009,8 hPa 0,0 l/m 0 min 0 min 0 W/m 9,7 km/h (2 Bft) 97,87 %
14.10.2018 04:38 16,0 C 15,0 C 14,4 C 78 % 1009,8 hPa 0,0 l/m 0 min 0 min 0 W/m 12,9 km/h (3 Bft) 98,94 %
14.10.2018 04:40 15,9 C 15,0 C 14,4 C 78 % 1009,7 hPa 0,0 l/m 0 min 0 min 0 W/m 9,7 km/h (2 Bft) 100,00 %
14.10.2018 04:42 15,9 C 15,0 C 14,4 C 78 % 1009,6 hPa 0,0 l/m 0 min 0 min 0 W/m 12,9 km/h (3 Bft) 100,00 %
14.10.2018 04:44 15,9 C 15,0 C 14,4 C 78 % 1009,5 hPa 0,0 l/m 0 min 0 min 0 W/m 9,7 km/h (2 Bft) 100,00 %
14.10.2018 04:46 15,9 C 15,0 C 14,4 C 78 % 1009,4 hPa 0,0 l/m 0 min 0 min 0 W/m 6,4 km/h (2 Bft) 96,00 %
14.10.2018 04:48 15,9 C 15,0 C 14,4 C 78 % 1009,4 hPa 0,0 l/m 0 min 0 min 0 W/m 12,9 km/h (3 Bft) 100,00 %
14.10.2018 04:50 15,9 C 15,0 C 14,4 C 78 % 1009,4 hPa 0,0 l/m 0 min 0 min 0 W/m 9,7 km/h (2 Bft) 100,00 %
14.10.2018 04:52 15,9 C 15,0 C 14,4 C 78 % 1009,3 hPa 0,0 l/m 0 min 0 min 0 W/m 6,4 km/h (2 Bft) 100,00 %
14.10.2018 04:54 15,9 C 15,0 C 14,4 C 78 % 1009,3 hPa 0,0 l/m 0 min 0 min 0 W/m 9,7 km/h (2 Bft) 100,00 %
14.10.2018 04:56 15,9 C 15,0 C 14,4 C 78 % 1009,3 hPa 0,0 l/m 0 min 0 min 0 W/m 12,9 km/h (3 Bft) 97,87 %
14.10.2018 04:58 15,8 C 15,0 C 14,4 C 78 % 1009,2 hPa 0,0 l/m 0 min 0 min 0 W/m 9,7 km/h (2 Bft) 97,87 %
14.10.2018 05:00 15,8 C 15,0 C 14,4 C 78 % 1009,1 hPa 0,0 l/m 0 min 0 min 0 W/m 19,3 km/h (3 Bft) 97,83 %
14.10.2018 05:02 15,8 C 15,0 C 14,4 C 78 % 1009,2 hPa 0,0 l/m 0 min 0 min 0 W/m 12,9 km/h (3 Bft) 100,00 %
14.10.2018 05:04 15,8 C 15,0 C 14,4 C 78 % 1009,2 hPa 0,0 l/m 0 min 0 min 0 W/m 9,7 km/h (2 Bft) 93,62 %
14.10.2018 05:05 15,8 C 15,0 C 14,4 C 78 % 1009,2 hPa 0,0 l/m 0 min 0 min 0 W/m 12,9 km/h (3 Bft) 100,00 %
14.10.2018 05:10 15,8 C 15,6 C 14,4 C 78 % 1009,1 hPa 0,0 l/m 0 min 0 min 0 W/m 16,1 km/h (3 Bft) 99,12 %
14.10.2018 05:12 15,8 C 15,6 C 14,4 C 78 % 1009,2 hPa 0,0 l/m 0 min 0 min 0 W/m 6,4 km/h (2 Bft) 100,00 %
14.10.2018 05:14 15,8 C 15,6 C 14,4 C 78 % 1009,1 hPa 0,0 l/m 0 min 0 min 0 W/m 9,7 km/h (2 Bft) 93,62 %
14.10.2018 05:16 15,8 C 15,6 C 15,0 C 78 % 1009,1 hPa 0,0 l/m 0 min 0 min 0 W/m 12,9 km/h (3 Bft) 93,33 %
14.10.2018 05:18 15,8 C 15,6 C 15,0 C 78 % 1009,1 hPa 0,0 l/m 0 min 0 min 0 W/m 9,7 km/h (2 Bft) 93,62 %
14.10.2018 05:20 15,9 C 15,6 C 15,0 C 78 % 1009,0 hPa 0,0 l/m 0 min 0 min 0 W/m 12,9 km/h (3 Bft) 95,74 %
14.10.2018 05:22 15,9 C 15,6 C 15,0 C 78 % 1009,0 hPa 0,0 l/m 0 min 0 min 0 W/m 16,1 km/h (3 Bft) 93,62 %
14.10.2018 05:24 15,9 C 15,6 C 15,0 C 78 % 1008,9 hPa 0,0 l/m 0 min 0 min 0 W/m 12,9 km/h (3 Bft) 92,31 %
14.10.2018 05:26 15,9 C 15,6 C 15,0 C 78 % 1008,9 hPa 0,0 l/m 0 min 0 min 0 W/m 9,7 km/h (2 Bft) 97,87 %
14.10.2018 05:28 15,9 C 15,6 C 14,4 C 78 % 1009,0 hPa 0,0 l/m 0 min 0 min 0 W/m 9,7 km/h (2 Bft) 100,00 %
14.10.2018 05:30 15,9 C 15,6 C 14,4 C 78 % 1008,8 hPa 0,0 l/m 0 min 0 min 0 W/m 12,9 km/h (3 Bft) 97,87 %
14.10.2018 05:32 15,9 C 15,6 C 15,0 C 78 % 1008,8 hPa 0,0 l/m 0 min 0 min 0 W/m 22,5 km/h (4 Bft) 98,00 %
14.10.2018 05:34 15,9 C 15,6 C 15,0 C 78 % 1008,8 hPa 0,0 l/m 0 min 0 min 0 W/m 19,3 km/h (3 Bft) 97,87 %
14.10.2018 05:38 16,0 C 15,6 C 15,0 C 78 % 1008,8 hPa 0,0 l/m 0 min 0 min 0 W/m 12,9 km/h (3 Bft) 96,04 %
14.10.2018 05:40 16,0 C 15,6 C 15,0 C 78 % 1008,7 hPa 0,0 l/m 0 min 0 min 0 W/m 12,9 km/h (3 Bft) 100,00 %
14.10.2018 05:42 16,0 C 15,6 C 15,0 C 77 % 1008,7 hPa 0,0 l/m 0 min 0 min 0 W/m 12,9 km/h (3 Bft) 97,87 %
14.10.2018 05:44 16,1 C 15,6 C 15,0 C 77 % 1008,7 hPa 0,0 l/m 0 min 0 min 0 W/m 16,1 km/h (3 Bft) 97,83 %
14.10.2018 05:46 16,1 C 15,6 C 15,0 C 77 % 1008,8 hPa 0,0 l/m 0 min 0 min 0 W/m 19,3 km/h (3 Bft) 97,87 %
14.10.2018 05:48 16,1 C 15,6 C 15,0 C 77 % 1008,7 hPa 0,0 l/m 0 min 0 min 0 W/m 12,9 km/h (3 Bft) 95,74 %
14.10.2018 05:50 16,1 C 15,6 C 15,0 C 77 % 1008,7 hPa 0,0 l/m 0 min 0 min 0 W/m 12,9 km/h (3 Bft) 97,87 %
14.10.2018 05:52 16,1 C 15,6 C 15,0 C 77 % 1008,7 hPa 0,0 l/m 0 min 0 min 0 W/m 12,9 km/h (3 Bft) 97,87 %
14.10.2018 05:54 16,1 C 15,6 C 15,0 C 77 % 1008,7 hPa 0,0 l/m 0 min 0 min 0 W/m 9,7 km/h (2 Bft) 95,74 %
14.10.2018 05:56 16,1 C 15,6 C 15,0 C 77 % 1008,7 hPa 0,0 l/m 0 min 0 min 0 W/m 9,7 km/h (2 Bft) 95,65 %
14.10.2018 05:58 16,1 C 15,6 C 15,0 C 77 % 1008,7 hPa 0,0 l/m 0 min 0 min 0 W/m 6,4 km/h (2 Bft) 97,87 %
14.10.2018 06:00 16,1 C 15,6 C 15,0 C 77 % 1008,7 hPa 0,0 l/m 0 min 0 min 0 W/m 12,9 km/h (3 Bft) 97,87 %
14.10.2018 06:02 16,1 C 15,6 C 14,4 C 77 % 1008,6 hPa 0,0 l/m 0 min 0 min 0 W/m 9,7 km/h (2 Bft) 98,00 %
14.10.2018 06:04 16,1 C 15,6 C 14,4 C 77 % 1008,7 hPa 0,0 l/m 0 min 0 min 0 W/m 9,7 km/h (2 Bft) 97,87 %
14.10.2018 06:08 16,1 C 15,6 C 15,0 C 77 % 1008,7 hPa 0,0 l/m 0 min 0 min 0 W/m 12,9 km/h (3 Bft) 97,85 %
14.10.2018 06:10 16,1 C 15,6 C 15,0 C 77 % 1008,7 hPa 0,0 l/m 0 min 0 min 0 W/m 9,7 km/h (2 Bft) 95,74 %
14.10.2018 06:12 16,1 C 15,6 C 15,0 C 77 % 1008,7 hPa 0,0 l/m 0 min 0 min 0 W/m 12,9 km/h (3 Bft) 95,74 %
14.10.2018 06:14 16,1 C 15,6 C 15,0 C 77 % 1008,6 hPa 0,0 l/m 0 min 0 min 0 W/m 12,9 km/h (3 Bft) 97,87 %
14.10.2018 06:16 16,1 C 15,6 C 14,4 C 77 % 1008,6 hPa 0,0 l/m 0 min 0 min 0 W/m 12,9 km/h (3 Bft) 97,87 %
14.10.2018 06:18 16,1 C 15,6 C 15,0 C 77 % 1008,6 hPa 0,0 l/m 0 min 0 min 0 W/m 12,9 km/h (3 Bft) 97,83 %
14.10.2018 06:20 16,1 C 15,6 C 14,4 C 77 % 1008,6 hPa 0,0 l/m 0 min 0 min 0 W/m 16,1 km/h (3 Bft) 97,87 %
14.10.2018 06:22 16,1 C 15,6 C 15,0 C 77 % 1008,5 hPa 0,0 l/m 0 min 0 min 0 W/m 12,9 km/h (3 Bft) 95,74 %
14.10.2018 06:24 16,1 C 15,6 C 15,0 C 77 % 1008,5 hPa 0,0 l/m 0 min 0 min 0 W/m 9,7 km/h (2 Bft) 97,87 %
14.10.2018 06:26 16,1 C 15,6 C 14,4 C 77 % 1008,6 hPa 0,0 l/m 0 min 0 min 0 W/m 9,7 km/h (2 Bft) 97,87 %
14.10.2018 06:28 16,1 C 15,6 C 14,4 C 77 % 1008,6 hPa 0,0 l/m 0 min 0 min 0 W/m 16,1 km/h (3 Bft) 93,62 %
14.10.2018 06:30 16,1 C 15,0 C 14,4 C 77 % 1008,5 hPa 0,0 l/m 0 min 0 min 0 W/m 9,7 km/h (2 Bft) 97,83 %
14.10.2018 06:32 16,1 C 15,0 C 14,4 C 77 % 1008,5 hPa 0,0 l/m 0 min 0 min 0 W/m 12,9 km/h (3 Bft) 95,45 %
14.10.2018 06:34 16,1 C 15,0 C 14,4 C 77 % 1008,5 hPa 0,0 l/m 0 min 0 min 0 W/m 12,9 km/h (3 Bft) 97,83 %
14.10.2018 06:38 16,1 C 15,0 C 14,4 C 77 % 1008,4 hPa 0,0 l/m 0 min 0 min 0 W/m 19,3 km/h (3 Bft) 95,51 %
14.10.2018 06:40 16,0 C 15,0 C 14,4 C 77 % 1008,4 hPa 0,0 l/m 0 min 0 min 0 W/m 16,1 km/h (3 Bft) 95,74 %
14.10.2018 06:42 16,0 C 15,0 C 14,4 C 77 % 1008,4 hPa 0,0 l/m 0 min 0 min 0 W/m 16,1 km/h (3 Bft) 97,87 %
14.10.2018 06:44 16,0 C 15,0 C 14,4 C 77 % 1008,4 hPa 0,0 l/m 0 min 0 min 0 W/m 16,1 km/h (3 Bft) 97,87 %
14.10.2018 06:46 16,0 C 15,0 C 14,4 C 77 % 1008,4 hPa 0,0 l/m 0 min 0 min 0 W/m 16,1 km/h (3 Bft) 95,35 %
14.10.2018 06:48 16,0 C 15,0 C 14,4 C 77 % 1008,3 hPa 0,0 l/m 0 min 0 min 0 W/m 9,7 km/h (2 Bft) 97,87 %
14.10.2018 06:50 15,9 C 15,0 C 14,4 C 77 % 1008,3 hPa 0,0 l/m 0 min 0 min 0 W/m 19,3 km/h (3 Bft) 98,28 %
14.10.2018 06:52 15,9 C 15,0 C 14,4 C 77 % 1008,2 hPa 0,0 l/m 0 min 0 min 0 W/m 9,7 km/h (2 Bft) 95,74 %
14.10.2018 06:54 15,9 C 15,0 C 14,4 C 77 % 1008,2 hPa 0,0 l/m 0 min 0 min 0 W/m 12,9 km/h (3 Bft) 97,14 %
14.10.2018 06:56 15,9 C 15,0 C 14,4 C 77 % 1008,3 hPa 0,0 l/m 0 min 0 min 0 W/m 6,4 km/h (2 Bft) 95,74 %
14.10.2018 06:58 15,9 C 15,0 C 14,4 C 77 % 1008,2 hPa 0,0 l/m 0 min 0 min 0 W/m 9,7 km/h (2 Bft) 97,87 %
14.10.2018 07:00 15,9 C 15,0 C 14,4 C 77 % 1008,2 hPa 0,0 l/m 0 min 0 min 0 W/m 12,9 km/h (3 Bft) 95,65 %
14.10.2018 07:02 15,9 C 15,0 C 14,4 C 77 % 1008,3 hPa 0,0 l/m 0 min 0 min 0 W/m 12,9 km/h (3 Bft) 98,04 %
14.10.2018 07:04 15,9 C 15,0 C 14,4 C 78 % 1008,3 hPa 0,0 l/m 0 min 0 min 0 W/m 12,9 km/h (3 Bft) 97,87 %
14.10.2018 07:08 15,9 C 15,0 C 14,4 C 78 % 1008,2 hPa 0,0 l/m 0 min 0 min 0 W/m 12,9 km/h (3 Bft) 97,87 %
14.10.2018 07:10 15,9 C 15,0 C 14,4 C 78 % 1008,3 hPa 0,0 l/m 0 min 0 min 0 W/m 12,9 km/h (3 Bft) 97,87 %
14.10.2018 07:12 15,8 C 15,0 C 14,4 C 78 % 1008,2 hPa 0,0 l/m 0 min 0 min 0 W/m 9,7 km/h (2 Bft) 97,83 %
14.10.2018 07:14 15,8 C 15,0 C 14,4 C 78 % 1008,2 hPa 0,0 l/m 0 min 0 min 0 W/m 9,7 km/h (2 Bft) 97,87 %
14.10.2018 07:16 15,8 C 15,0 C 14,4 C 78 % 1008,2 hPa 0,0 l/m 0 min 0 min 0 W/m 9,7 km/h (2 Bft) 95,92 %
14.10.2018 07:18 15,8 C 15,0 C 14,4 C 78 % 1008,2 hPa 0,0 l/m 0 min 0 min 0 W/m 9,7 km/h (2 Bft) 100,00 %
14.10.2018 07:20 15,8 C 15,0 C 14,4 C 78 % 1008,2 hPa 0,0 l/m 0 min 0 min 0 W/m 16,1 km/h (3 Bft) 97,87 %
14.10.2018 07:22 15,8 C 15,0 C 14,4 C 78 % 1008,2 hPa 0,0 l/m 0 min 0 min 0 W/m 12,9 km/h (3 Bft) 97,83 %
14.10.2018 07:24 15,8 C 15,0 C 14,4 C 78 % 1008,3 hPa 0,0 l/m 0 min 0 min 0 W/m 9,7 km/h (2 Bft) 100,00 %
14.10.2018 07:26 15,8 C 15,0 C 14,4 C 78 % 1008,3 hPa 0,0 l/m 0 min 0 min 0 W/m 12,9 km/h (3 Bft) 100,00 %
14.10.2018 07:28 15,8 C 15,0 C 14,4 C 78 % 1008,2 hPa 0,0 l/m 0 min 0 min 0 W/m 12,9 km/h (3 Bft) 100,00 %
14.10.2018 07:30 15,7 C 15,0 C 14,4 C 78 % 1008,2 hPa 0,0 l/m 0 min 0 min 0 W/m 12,9 km/h (3 Bft) 100,00 %
14.10.2018 07:32 15,7 C 15,0 C 14,4 C 78 % 1008,2 hPa 0,0 l/m 0 min 0 min 0 W/m 9,7 km/h (2 Bft) 100,00 %
14.10.2018 07:34 15,7 C 15,0 C 14,4 C 78 % 1008,2 hPa 0,0 l/m 0 min 0 min 0 W/m 12,9 km/h (3 Bft) 100,00 %
14.10.2018 07:38 15,7 C 15,0 C 14,4 C 78 % 1008,1 hPa 0,0 l/m 0 min 0 min 0 W/m 22,5 km/h (4 Bft) 98,92 %
14.10.2018 07:40 15,7 C 15,0 C 14,4 C 78 % 1008,1 hPa 0,0 l/m 0 min 0 min 0 W/m 9,7 km/h (2 Bft) 95,74 %
14.10.2018 07:42 15,7 C 15,0 C 14,4 C 78 % 1008,1 hPa 0,0 l/m 0 min 0 min 0 W/m 9,7 km/h (2 Bft) 97,87 %
14.10.2018 07:44 15,7 C 15,0 C 14,4 C 78 % 1008,1 hPa 0,0 l/m 0 min 0 min 1 W/m 12,9 km/h (3 Bft) 97,87 %
14.10.2018 07:46 15,7 C 15,0 C 14,4 C 78 % 1008,0 hPa 0,0 l/m 0 min 0 min 5 W/m 12,9 km/h (3 Bft) 97,83 %
14.10.2018 07:48 15,7 C 15,0 C 14,4 C 78 % 1008,0 hPa 0,0 l/m 0 min 0 min 5 W/m 16,1 km/h (3 Bft) 95,83 %
14.10.2018 07:50 15,7 C 15,0 C 14,4 C 78 % 1008,1 hPa 0,0 l/m 0 min 0 min 6 W/m 12,9 km/h (3 Bft) 97,87 %
14.10.2018 07:52 15,7 C 15,0 C 14,4 C 78 % 1008,0 hPa 0,0 l/m 0 min 0 min 7 W/m 12,9 km/h (3 Bft) 97,87 %
14.10.2018 07:54 15,7 C 15,0 C 14,4 C 78 % 1008,1 hPa 0,0 l/m 0 min 0 min 7 W/m 12,9 km/h (3 Bft) 97,87 %
14.10.2018 07:56 15,7 C 15,0 C 14,4 C 78 % 1008,1 hPa 0,0 l/m 0 min 0 min 9 W/m 9,7 km/h (2 Bft) 95,74 %
14.10.2018 07:58 15,7 C 15,0 C 14,4 C 78 % 1008,1 hPa 0,0 l/m 0 min 0 min 10 W/m 22,5 km/h (4 Bft) 97,83 %
14.10.2018 08:00 15,7 C 15,0 C 14,4 C 78 % 1008,1 hPa 0,0 l/m 0 min 0 min 11 W/m 12,9 km/h (3 Bft) 97,87 %
14.10.2018 08:02 15,7 C 15,0 C 14,4 C 78 % 1008,1 hPa 0,0 l/m 0 min 0 min 11 W/m 12,9 km/h (3 Bft) 93,62 %
14.10.2018 08:04 15,7 C 15,0 C 14,4 C 78 % 1008,1 hPa 0,0 l/m 0 min 0 min 12 W/m 12,9 km/h (3 Bft) 97,87 %
14.10.2018 08:08 15,7 C 15,0 C 14,4 C 78 % 1008,1 hPa 0,0 l/m 0 min 0 min 14 W/m 16,1 km/h (3 Bft) 96,81 %
14.10.2018 08:10 15,7 C 15,0 C 14,4 C 78 % 1008,1 hPa 0,0 l/m 0 min 0 min 16 W/m 16,1 km/h (3 Bft) 97,83 %
14.10.2018 08:12 15,7 C 15,0 C 14,4 C 78 % 1008,2 hPa 0,0 l/m 0 min 0 min 16 W/m 12,9 km/h (3 Bft) 93,62 %
14.10.2018 08:14 15,7 C 15,0 C 14,4 C 78 % 1008,2 hPa 0,0 l/m 0 min 0 min 18 W/m 9,7 km/h (2 Bft) 95,74 %
14.10.2018 08:16 15,7 C 15,0 C 14,4 C 78 % 1008,2 hPa 0,0 l/m 0 min 0 min 18 W/m 19,3 km/h (3 Bft) 95,83 %
14.10.2018 08:18 15,7 C 15,0 C 14,4 C 78 % 1008,3 hPa 0,0 l/m 0 min 0 min 19 W/m 12,9 km/h (3 Bft) 97,87 %
14.10.2018 08:20 15,6 C 15,0 C 14,4 C 78 % 1008,3 hPa 0,0 l/m 0 min 0 min 21 W/m 16,1 km/h (3 Bft) 97,83 %
14.10.2018 08:22 15,6 C 15,0 C 14,4 C 78 % 1008,3 hPa 0,0 l/m 0 min 0 min 21 W/m 12,9 km/h (3 Bft) 97,87 %
14.10.2018 08:24 15,7 C 15,0 C 14,4 C 78 % 1008,3 hPa 0,0 l/m 0 min 0 min 22 W/m 12,9 km/h (3 Bft) 100,00 %
14.10.2018 08:26 15,6 C 15,0 C 14,4 C 78 % 1008,3 hPa 0,0 l/m 0 min 0 min 23 W/m 16,1 km/h (3 Bft) 100,00 %
14.10.2018 08:28 15,7 C 15,0 C 14,4 C 78 % 1008,3 hPa 0,0 l/m 0 min 0 min 25 W/m 9,7 km/h (2 Bft) 97,87 %
14.10.2018 08:30 15,6 C 15,0 C 14,4 C 78 % 1008,4 hPa 0,0 l/m 0 min 0 min 25 W/m 9,7 km/h (2 Bft) 97,87 %
14.10.2018 08:32 15,6 C 15,0 C 14,4 C 78 % 1008,4 hPa 0,0 l/m 0 min 0 min 25 W/m 9,7 km/h (2 Bft) 100,00 %
14.10.2018 08:34 15,6 C 15,0 C 14,4 C 78 % 1008,4 hPa 0,0 l/m 0 min 0 min 26 W/m 12,9 km/h (3 Bft) 100,00 %
14.10.2018 08:38 15,6 C 15,0 C 14,4 C 78 % 1008,4 hPa 0,0 l/m 0 min 0 min 26 W/m 12,9 km/h (3 Bft) 98,92 %
14.10.2018 08:40 15,6 C 15,0 C 14,4 C 78 % 1008,3 hPa 0,0 l/m 0 min 0 min 26 W/m 16,1 km/h (3 Bft) 100,00 %
14.10.2018 08:42 15,6 C 15,0 C 14,4 C 79 % 1008,3 hPa 0,0 l/m 0 min 0 min 27 W/m 12,9 km/h (3 Bft) 100,00 %
14.10.2018 08:44 15,6 C 15,0 C 14,4 C 79 % 1008,4 hPa 0,0 l/m 0 min 0 min 28 W/m 12,9 km/h (3 Bft) 100,00 %
14.10.2018 08:46 15,6 C 15,0 C 14,4 C 79 % 1008,5 hPa 0,0 l/m 0 min 0 min 28 W/m 9,7 km/h (2 Bft) 97,92 %
14.10.2018 08:48 15,6 C 15,0 C 14,4 C 79 % 1008,4 hPa 0,0 l/m 0 min 0 min 28 W/m 19,3 km/h (3 Bft) 100,00 %
14.10.2018 08:50 15,6 C 15,0 C 14,4 C 79 % 1008,4 hPa 0,0 l/m 0 min 0 min 28 W/m 12,9 km/h (3 Bft) 100,00 %
14.10.2018 08:52 15,6 C 15,0 C 14,4 C 79 % 1008,4 hPa 0,0 l/m 0 min 0 min 28 W/m 16,1 km/h (3 Bft) 100,00 %
14.10.2018 08:54 15,6 C 15,0 C 14,4 C 79 % 1008,4 hPa 0,0 l/m 0 min 0 min 30 W/m 9,7 km/h (2 Bft) 100,00 %
14.10.2018 08:56 15,6 C 15,6 C 14,4 C 79 % 1008,5 hPa 0,0 l/m 0 min 0 min 30 W/m 12,9 km/h (3 Bft) 100,00 %
14.10.2018 08:58 15,6 C 15,6 C 14,4 C 79 % 1008,5 hPa 0,0 l/m 0 min 0 min 30 W/m 12,9 km/h (3 Bft) 97,87 %
14.10.2018 09:00 15,7 C 15,6 C 14,4 C 79 % 1008,4 hPa 0,0 l/m 0 min 0 min 30 W/m 9,7 km/h (2 Bft) 100,00 %
14.10.2018 09:02 15,7 C 15,6 C 14,4 C 79 % 1008,4 hPa 0,0 l/m 0 min 0 min 31 W/m 16,1 km/h (3 Bft) 100,00 %
14.10.2018 09:04 15,7 C 15,6 C 14,4 C 79 % 1008,4 hPa 0,0 l/m 0 min 0 min 32 W/m 12,9 km/h (3 Bft) 97,83 %
14.10.2018 09:08 15,7 C 15,6 C 14,4 C 79 % 1008,4 hPa 0,0 l/m 0 min 0 min 32 W/m 19,3 km/h (3 Bft) 97,96 %
14.10.2018 09:10 15,7 C 15,6 C 14,4 C 79 % 1008,4 hPa 0,0 l/m 0 min 0 min 33 W/m 16,1 km/h (3 Bft) 97,87 %
14.10.2018 09:12 15,8 C 15,6 C 14,4 C 79 % 1008,5 hPa 0,0 l/m 0 min 0 min 33 W/m 19,3 km/h (3 Bft) 97,87 %
14.10.2018 09:14 15,8 C 15,6 C 15,0 C 79 % 1008,5 hPa 0,0 l/m 0 min 0 min 33 W/m 12,9 km/h (3 Bft) 100,00 %
14.10.2018 09:16 15,8 C 15,6 C 15,0 C 79 % 1008,5 hPa 0,0 l/m 0 min 0 min 33 W/m 19,3 km/h (3 Bft) 95,65 %
14.10.2018 09:18 15,9 C 15,6 C 15,0 C 79 % 1008,5 hPa 0,0 l/m 0 min 0 min 33 W/m 19,3 km/h (3 Bft) 95,74 %
14.10.2018 09:20 15,9 C 16,1 C 15,0 C 79 % 1008,6 hPa 0,0 l/m 0 min 0 min 33 W/m 19,3 km/h (3 Bft) 97,87 %
14.10.2018 09:22 15,9 C 16,1 C 15,0 C 79 % 1008,6 hPa 0,0 l/m 0 min 0 min 33 W/m 16,1 km/h (3 Bft) 93,62 %
14.10.2018 09:24 16,0 C 16,1 C 15,0 C 79 % 1008,5 hPa 0,0 l/m 0 min 0 min 35 W/m 16,1 km/h (3 Bft) 97,87 %
14.10.2018 09:26 16,0 C 16,1 C 15,0 C 79 % 1008,5 hPa 0,0 l/m 0 min 0 min 35 W/m 12,9 km/h (3 Bft) 95,74 %
14.10.2018 09:28 16,1 C 16,1 C 15,0 C 79 % 1008,5 hPa 0,0 l/m 0 min 0 min 35 W/m 25,7 km/h (4 Bft) 95,74 %
14.10.2018 09:30 16,1 C 16,1 C 15,0 C 79 % 1008,4 hPa 0,0 l/m 0 min 0 min 35 W/m 16,1 km/h (3 Bft) 95,74 %
14.10.2018 09:32 16,1 C 16,1 C 15,0 C 79 % 1008,4 hPa 0,0 l/m 0 min 0 min 35 W/m 12,9 km/h (3 Bft) 95,65 %
14.10.2018 09:34 16,2 C 16,1 C 15,0 C 79 % 1008,4 hPa 0,0 l/m 0 min 0 min 35 W/m 16,1 km/h (3 Bft) 95,74 %
14.10.2018 09:38 16,2 C 16,1 C 15,0 C 79 % 1008,4 hPa 0,0 l/m 0 min 0 min 35 W/m 25,7 km/h (4 Bft) 93,62 %
14.10.2018 09:40 16,3 C 16,7 C 15,0 C 79 % 1008,4 hPa 0,0 l/m 0 min 0 min 37 W/m 22,5 km/h (4 Bft) 95,74 %
14.10.2018 09:42 16,3 C 16,7 C 15,0 C 79 % 1008,4 hPa 0,0 l/m 0 min 0 min 58 W/m 19,3 km/h (3 Bft) 95,65 %
14.10.2018 09:44 16,3 C 16,7 C 15,0 C 79 % 1008,4 hPa 0,0 l/m 0 min 0 min 97 W/m 16,1 km/h (3 Bft) 95,74 %
14.10.2018 09:46 16,4 C 16,7 C 15,0 C 79 % 1008,4 hPa 0,0 l/m 0 min 0 min 77 W/m 19,3 km/h (3 Bft) 93,62 %
14.10.2018 09:48 16,4 C 16,7 C 15,0 C 79 % 1008,4 hPa 0,0 l/m 0 min 0 min 70 W/m 25,7 km/h (4 Bft) 95,74 %
14.10.2018 09:50 16,5 C 17,8 C 15,0 C 79 % 1008,4 hPa 0,0 l/m 0 min 0 min 67 W/m 19,3 km/h (3 Bft) 95,74 %
14.10.2018 09:52 16,6 C 18,9 C 15,0 C 79 % 1008,4 hPa 0,0 l/m 0 min 0 min 48 W/m 16,1 km/h (3 Bft) 95,74 %
14.10.2018 09:54 16,6 C 18,9 C 15,0 C 79 % 1008,5 hPa 0,0 l/m 0 min 0 min 39 W/m 25,7 km/h (4 Bft) 93,48 %
14.10.2018 09:56 16,6 C 18,9 C 15,6 C 79 % 1008,5 hPa 0,0 l/m 0 min 0 min 40 W/m 22,5 km/h (4 Bft) 95,74 %
14.10.2018 09:58 16,7 C 19,4 C 15,6 C 78 % 1008,6 hPa 0,0 l/m 0 min 0 min 40 W/m 19,3 km/h (3 Bft) 95,74 %
14.10.2018 10:00 16,8 C 20,6 C 15,6 C 78 % 1008,6 hPa 0,0 l/m 0 min 0 min 40 W/m 25,7 km/h (4 Bft) 95,74 %
14.10.2018 10:02 16,8 C 21,1 C 15,6 C 78 % 1008,4 hPa 0,0 l/m 0 min 0 min 41 W/m 16,1 km/h (3 Bft) 95,83 %
14.10.2018 10:04 16,9 C 21,7 C 15,6 C 78 % 1008,4 hPa 0,0 l/m 0 min 0 min 54 W/m 25,7 km/h (4 Bft) 94,29 %
14.10.2018 10:08 17,1 C 22,2 C 15,6 C 78 % 1008,4 hPa 0,0 l/m 0 min 0 min 64 W/m 22,5 km/h (4 Bft) 96,81 %
14.10.2018 10:10 17,2 C 22,8 C 15,6 C 78 % 1008,4 hPa 0,0 l/m 0 min 0 min 47 W/m 22,5 km/h (4 Bft) 95,65 %
14.10.2018 10:12 17,4 C 22,8 C 15,6 C 77 % 1008,4 hPa 0,0 l/m 0 min 0 min 42 W/m 32,2 km/h (5 Bft) 97,87 %
14.10.2018 10:14 17,5 C 23,3 C 15,6 C 77 % 1008,3 hPa 0,0 l/m 0 min 0 min 42 W/m 19,3 km/h (3 Bft) 95,74 %
14.10.2018 10:16 17,6 C 23,9 C 15,6 C 77 % 1008,4 hPa 0,0 l/m 0 min 0 min 42 W/m 12,9 km/h (3 Bft) 93,62 %
14.10.2018 10:18 17,7 C 23,9 C 16,1 C 77 % 1008,3 hPa 0,0 l/m 0 min 0 min 44 W/m 12,9 km/h (3 Bft) 93,62 %
14.10.2018 10:20 17,9 C 23,3 C 16,1 C 76 % 1008,4 hPa 0,0 l/m 0 min 0 min 43 W/m 19,3 km/h (3 Bft) 96,55 %
14.10.2018 10:22 18,0 C 23,9 C 16,1 C 76 % 1008,4 hPa 0,0 l/m 0 min 0 min 42 W/m 16,1 km/h (3 Bft) 91,43 %
14.10.2018 10:24 18,2 C 23,3 C 16,1 C 75 % 1008,3 hPa 0,0 l/m 0 min 0 min 43 W/m 22,5 km/h (4 Bft) 97,87 %
14.10.2018 10:26 18,3 C 23,9 C 16,1 C 75 % 1008,3 hPa 0,0 l/m 0 min 0 min 46 W/m 16,1 km/h (3 Bft) 97,87 %
14.10.2018 10:28 18,4 C 23,9 C 16,1 C 74 % 1008,3 hPa 0,0 l/m 0 min 0 min 73 W/m 22,5 km/h (4 Bft) 97,87 %
14.10.2018 10:30 18,6 C 23,9 C 16,1 C 74 % 1008,3 hPa 0,0 l/m 0 min 0 min 89 W/m 22,5 km/h (4 Bft) 97,87 %
14.10.2018 10:32 18,7 C 24,4 C 16,1 C 74 % 1008,3 hPa 0,0 l/m 0 min 0 min 94 W/m 19,3 km/h (3 Bft) 95,74 %
14.10.2018 10:34 18,8 C 25,0 C 16,1 C 73 % 1008,3 hPa 0,0 l/m 0 min 0 min 126 W/m 16,1 km/h (3 Bft) 97,87 %
14.10.2018 10:38 19,1 C 24,4 C 16,7 C 73 % 1008,3 hPa 0,0 l/m 0 min 0 min 171 W/m 22,5 km/h (4 Bft) 96,81 %
14.10.2018 10:40 19,2 C 25,0 C 16,7 C 72 % 1008,4 hPa 0,0 l/m 0 min 0 min 158 W/m 16,1 km/h (3 Bft) 95,74 %
14.10.2018 10:42 19,3 C 25,6 C 16,7 C 72 % 1008,3 hPa 0,0 l/m 0 min 0 min 149 W/m 19,3 km/h (3 Bft) 97,87 %
14.10.2018 10:44 19,4 C 25,6 C 16,7 C 72 % 1008,3 hPa 0,0 l/m 2 min 0 min 195 W/m 16,1 km/h (3 Bft) 97,83 %
14.10.2018 10:46 19,6 C 25,0 C 16,7 C 71 % 1008,3 hPa 0,0 l/m 2 min 0 min 195 W/m 16,1 km/h (3 Bft) 98,00 %
14.10.2018 10:48 19,7 C 25,0 C 16,7 C 71 % 1008,3 hPa 0,0 l/m 0 min 0 min 112 W/m 25,7 km/h (4 Bft) 100,00 %
14.10.2018 10:50 19,8 C 25,0 C 16,7 C 71 % 1008,2 hPa 0,0 l/m 0 min 0 min 131 W/m 16,1 km/h (3 Bft) 100,00 %
14.10.2018 10:52 19,9 C 25,0 C 16,7 C 70 % 1008,2 hPa 0,0 l/m 2 min 0 min 202 W/m 25,7 km/h (4 Bft) 97,22 %
14.10.2018 10:54 20,1 C 25,6 C 16,7 C 69 % 1008,1 hPa 0,0 l/m 2 min 0 min 260 W/m 19,3 km/h (3 Bft) 100,00 %
14.10.2018 10:56 20,1 C 25,6 C 16,7 C 69 % 1008,1 hPa 0,0 l/m 0 min 0 min 168 W/m 12,9 km/h (3 Bft) 97,87 %
14.10.2018 10:58 20,2 C 25,6 C 17,2 C 69 % 1008,1 hPa 0,0 l/m 0 min 0 min 90 W/m 22,5 km/h (4 Bft) 100,00 %
14.10.2018 11:00 20,3 C 25,0 C 17,2 C 69 % 1008,1 hPa 0,0 l/m 0 min 0 min 48 W/m 22,5 km/h (4 Bft) 100,00 %
14.10.2018 11:02 20,4 C 25,6 C 17,2 C 69 % 1008,1 hPa 0,0 l/m 0 min 0 min 46 W/m 12,9 km/h (3 Bft) 97,83 %
14.10.2018 11:04 20,5 C 25,6 C 17,2 C 68 % 1008,0 hPa 0,0 l/m 0 min 0 min 67 W/m 16,1 km/h (3 Bft) 100,00 %
14.10.2018 11:08 20,7 C 25,6 C 17,2 C 68 % 1008,1 hPa 0,0 l/m 0 min 0 min 134 W/m 32,2 km/h (5 Bft) 100,00 %
14.10.2018 11:10 20,8 C 25,6 C 17,2 C 68 % 1008,1 hPa 0,0 l/m 0 min 0 min 132 W/m 19,3 km/h (3 Bft) 100,00 %
14.10.2018 11:12 20,9 C 25,6 C 17,8 C 67 % 1008,1 hPa 0,0 l/m 0 min 0 min 138 W/m 22,5 km/h (4 Bft) 100,00 %
14.10.2018 11:14 20,9 C 26,1 C 17,8 C 67 % 1008,1 hPa 0,0 l/m 2 min 0 min 230 W/m 16,1 km/h (3 Bft) 97,87 %
14.10.2018 11:16 21,0 C 27,2 C 17,2 C 67 % 1008,0 hPa 0,0 l/m 0 min 0 min 122 W/m 12,9 km/h (3 Bft) 100,00 %
14.10.2018 11:18 21,1 C 26,7 C 17,2 C 67 % 1008,0 hPa 0,0 l/m 0 min 0 min 80 W/m 19,3 km/h (3 Bft) 100,00 %
14.10.2018 11:20 21,2 C 27,2 C 17,8 C 67 % 1008,1 hPa 0,0 l/m 0 min 0 min 122 W/m 12,9 km/h (3 Bft) 100,00 %
14.10.2018 11:22 21,3 C 27,2 C 17,8 C 67 % 1008,0 hPa 0,0 l/m 0 min 0 min 192 W/m 22,5 km/h (4 Bft) 95,74 %
14.10.2018 11:24 21,4 C 26,7 C 17,8 C 66 % 1008,0 hPa 0,0 l/m 0 min 0 min 142 W/m 16,1 km/h (3 Bft) 100,00 %
14.10.2018 11:26 21,5 C 26,7 C 17,8 C 66 % 1008,1 hPa 0,0 l/m 0 min 0 min 89 W/m 29,0 km/h (5 Bft) 100,00 %
14.10.2018 11:28 21,6 C 27,2 C 17,8 C 66 % 1008,1 hPa 0,0 l/m 0 min 0 min 50 W/m 16,1 km/h (3 Bft) 100,00 %
14.10.2018 11:30 21,7 C 27,8 C 17,8 C 66 % 1008,0 hPa 0,0 l/m 0 min 0 min 197 W/m 16,1 km/h (3 Bft) 100,00 %
14.10.2018 11:32 21,8 C 27,8 C 17,8 C 66 % 1008,0 hPa 0,0 l/m 2 min 0 min 275 W/m 16,1 km/h (3 Bft) 100,00 %
14.10.2018 11:34 21,8 C 27,8 C 17,8 C 66 % 1008,0 hPa 0,0 l/m 2 min 0 min 320 W/m 19,3 km/h (3 Bft) 100,00 %
14.10.2018 11:38 22,0 C 28,3 C 18,3 C 66 % 1008,0 hPa 0,0 l/m 0 min 0 min 214 W/m 12,9 km/h (3 Bft) 98,94 %
14.10.2018 11:40 22,1 C 28,3 C 18,3 C 65 % 1007,9 hPa 0,0 l/m 0 min 0 min 134 W/m 16,1 km/h (3 Bft) 100,00 %
14.10.2018 11:42 22,2 C 28,3 C 18,3 C 65 % 1007,9 hPa 0,0 l/m 0 min 0 min 63 W/m 16,1 km/h (3 Bft) 100,00 %
14.10.2018 11:44 22,2 C 28,3 C 18,3 C 65 % 1008,0 hPa 0,0 l/m 0 min 0 min 75 W/m 12,9 km/h (3 Bft) 100,00 %
14.10.2018 11:46 22,3 C 28,3 C 18,3 C 64 % 1007,9 hPa 0,0 l/m 0 min 0 min 62 W/m 19,3 km/h (3 Bft) 100,00 %
14.10.2018 11:48 22,4 C 28,9 C 18,3 C 65 % 1007,9 hPa 0,0 l/m 0 min 0 min 51 W/m 12,9 km/h (3 Bft) 97,87 %
14.10.2018 11:50 22,5 C 28,9 C 18,3 C 64 % 1007,9 hPa 0,0 l/m 2 min 0 min 233 W/m 12,9 km/h (3 Bft) 100,00 %
14.10.2018 11:52 22,6 C 28,9 C 18,3 C 64 % 1007,9 hPa 0,0 l/m 0 min 0 min 186 W/m 12,9 km/h (3 Bft) 97,87 %
14.10.2018 11:54 22,7 C 29,4 C 18,3 C 64 % 1007,9 hPa 0,0 l/m 0 min 0 min 179 W/m 9,7 km/h (2 Bft) 100,00 %
14.10.2018 11:56 22,8 C 29,4 C 18,9 C 63 % 1008,0 hPa 0,0 l/m 2 min 0 min 245 W/m 9,7 km/h (2 Bft) 100,00 %
14.10.2018 11:58 22,9 C 28,9 C 18,9 C 62 % 1007,9 hPa 0,0 l/m 0 min 0 min 212 W/m 22,5 km/h (4 Bft) 100,00 %
14.10.2018 12:00 22,9 C 29,4 C 18,9 C 63 % 1007,9 hPa 0,0 l/m 0 min 0 min 223 W/m 12,9 km/h (3 Bft) 100,00 %
14.10.2018 12:02 23,0 C 28,9 C 18,9 C 62 % 1008,0 hPa 0,0 l/m 0 min 0 min 196 W/m 19,3 km/h (3 Bft) 100,00 %
14.10.2018 12:04 23,1 C 28,9 C 18,9 C 62 % 1008,0 hPa 0,0 l/m 2 min 0 min 268 W/m 22,5 km/h (4 Bft) 97,87 %
14.10.2018 12:08 23,3 C 28,9 C 18,9 C 61 % 1008,0 hPa 0,0 l/m 4 min 0 min 279 W/m 16,1 km/h (3 Bft) 96,77 %
14.10.2018 12:10 23,3 C 28,9 C 18,9 C 61 % 1008,0 hPa 0,0 l/m 0 min 0 min 90 W/m 19,3 km/h (3 Bft) 95,74 %
14.10.2018 12:12 23,3 C 28,3 C 19,4 C 61 % 1008,0 hPa 0,0 l/m 0 min 0 min 55 W/m 22,5 km/h (4 Bft) 97,87 %
14.10.2018 12:14 23,4 C 28,9 C 19,4 C 61 % 1008,0 hPa 0,0 l/m 0 min 0 min 71 W/m 16,1 km/h (3 Bft) 97,87 %
14.10.2018 12:16 23,4 C 28,9 C 19,4 C 60 % 1008,0 hPa 0,0 l/m 0 min 0 min 107 W/m 22,5 km/h (4 Bft) 97,87 %
14.10.2018 12:18 23,4 C 28,9 C 19,4 C 61 % 1007,9 hPa 0,0 l/m 0 min 0 min 97 W/m 19,3 km/h (3 Bft) 97,87 %
14.10.2018 12:20 23,4 C 29,4 C 19,4 C 60 % 1008,0 hPa 0,0 l/m 0 min 0 min 53 W/m 19,3 km/h (3 Bft) 97,87 %
14.10.2018 12:22 23,5 C 28,9 C 19,4 C 60 % 1008,0 hPa 0,0 l/m 0 min 0 min 63 W/m 19,3 km/h (3 Bft) 97,87 %
14.10.2018 12:24 23,6 C 27,8 C 19,4 C 60 % 1008,0 hPa 0,0 l/m 0 min 0 min 93 W/m 16,1 km/h (3 Bft) 95,74 %
14.10.2018 12:26 23,6 C 28,9 C 19,4 C 60 % 1007,9 hPa 0,0 l/m 0 min 0 min 56 W/m 16,1 km/h (3 Bft) 97,87 %
14.10.2018 12:28 23,7 C 28,9 C 19,4 C 60 % 1007,9 hPa 0,0 l/m 0 min 0 min 76 W/m 19,3 km/h (3 Bft) 97,83 %
14.10.2018 12:30 23,7 C 28,9 C 19,4 C 60 % 1008,0 hPa 0,0 l/m 0 min 0 min 53 W/m 19,3 km/h (3 Bft) 97,87 %
14.10.2018 12:32 23,7 C 28,9 C 19,4 C 60 % 1007,9 hPa 0,0 l/m 0 min 0 min 56 W/m 12,9 km/h (3 Bft) 95,74 %
14.10.2018 12:34 23,7 C 27,8 C 19,4 C 60 % 1007,8 hPa 0,0 l/m 0 min 0 min 57 W/m 12,9 km/h (3 Bft) 93,62 %
14.10.2018 12:38 23,7 C 25,0 C 19,4 C 60 % 1007,9 hPa 0,0 l/m 0 min 0 min 56 W/m 19,3 km/h (3 Bft) 93,33 %
14.10.2018 12:40 23,7 C 25,6 C 19,4 C 60 % 1007,9 hPa 0,0 l/m 0 min 0 min 60 W/m 16,1 km/h (3 Bft) 93,62 %
14.10.2018 12:42 23,7 C 25,0 C 19,4 C 60 % 1007,8 hPa 0,0 l/m 0 min 0 min 56 W/m 12,9 km/h (3 Bft) 95,74 %
14.10.2018 12:44 23,7 C 24,4 C 19,4 C 60 % 1007,8 hPa 0,0 l/m 0 min 0 min 56 W/m 12,9 km/h (3 Bft) 95,74 %
14.10.2018 12:46 23,6 C 23,9 C 19,4 C 60 % 1007,8 hPa 0,0 l/m 0 min 0 min 64 W/m 19,3 km/h (3 Bft) 95,74 %
14.10.2018 12:48 23,6 C 23,3 C 19,4 C 60 % 1007,8 hPa 0,0 l/m 0 min 0 min 54 W/m 16,1 km/h (3 Bft) 95,65 %
14.10.2018 12:50 23,6 C 23,3 C 20,0 C 60 % 1007,7 hPa 0,0 l/m 0 min 0 min 72 W/m 16,1 km/h (3 Bft) 93,22 %
14.10.2018 12:52 23,6 C 23,3 C 20,0 C 61 % 1007,7 hPa 0,0 l/m 0 min 0 min 187 W/m 12,9 km/h (3 Bft) 97,22 %
14.10.2018 12:54 23,5 C 22,8 C 20,0 C 60 % 1007,8 hPa 0,0 l/m 0 min 0 min 239 W/m 22,5 km/h (4 Bft) 95,74 %
14.10.2018 12:56 23,5 C 22,8 C 20,0 C 60 % 1007,8 hPa 0,0 l/m 0 min 0 min 65 W/m 22,5 km/h (4 Bft) 95,74 %
14.10.2018 12:58 23,5 C 22,8 C 20,0 C 60 % 1007,8 hPa 0,0 l/m 0 min 0 min 84 W/m 12,9 km/h (3 Bft) 95,74 %
14.10.2018 13:00 23,4 C 22,8 C 19,4 C 60 % 1007,8 hPa 0,0 l/m 0 min 0 min 139 W/m 16,1 km/h (3 Bft) 93,48 %
14.10.2018 13:02 23,4 C 22,8 C 20,0 C 60 % 1007,8 hPa 0,0 l/m 2 min 0 min 264 W/m 16,1 km/h (3 Bft) 95,74 %
14.10.2018 13:04 23,4 C 22,8 C 20,0 C 60 % 1007,8 hPa 0,0 l/m 2 min 0 min 455 W/m 12,9 km/h (3 Bft) 93,62 %
14.10.2018 13:08 23,4 C 23,3 C 20,0 C 61 % 1007,7 hPa 0,0 l/m 4 min 0 min 458 W/m 19,3 km/h (3 Bft) 97,89 %
14.10.2018 13:10 23,4 C 23,3 C 20,0 C 60 % 1007,8 hPa 0,0 l/m 2 min 0 min 461 W/m 19,3 km/h (3 Bft) 93,62 %
14.10.2018 13:12 23,4 C 23,3 C 20,0 C 60 % 1007,7 hPa 0,0 l/m 2 min 0 min 461 W/m 22,5 km/h (4 Bft) 97,83 %
14.10.2018 13:14 23,4 C 23,3 C 20,0 C 60 % 1007,7 hPa 0,0 l/m 2 min 0 min 462 W/m 16,1 km/h (3 Bft) 95,74 %
14.10.2018 13:16 23,4 C 23,3 C 20,0 C 60 % 1007,7 hPa 0,0 l/m 2 min 0 min 462 W/m 9,7 km/h (2 Bft) 97,87 %
14.10.2018 13:18 23,5 C 23,3 C 20,6 C 60 % 1007,6 hPa 0,0 l/m 2 min 0 min 464 W/m 16,1 km/h (3 Bft) 100,00 %
14.10.2018 13:20 23,5 C 23,3 C 20,6 C 60 % 1007,6 hPa 0,0 l/m 2 min 0 min 465 W/m 22,5 km/h (4 Bft) 97,87 %
14.10.2018 13:22 23,6 C 23,9 C 20,6 C 60 % 1007,6 hPa 0,0 l/m 2 min 0 min 466 W/m 9,7 km/h (2 Bft) 97,87 %
14.10.2018 13:24 23,6 C 23,9 C 20,6 C 59 % 1007,5 hPa 0,0 l/m 2 min 0 min 468 W/m 12,9 km/h (3 Bft) 97,83 %
14.10.2018 13:26 23,7 C 23,9 C 20,6 C 59 % 1007,5 hPa 0,0 l/m 2 min 0 min 468 W/m 16,1 km/h (3 Bft) 95,74 %
14.10.2018 13:28 23,7 C 23,9 C 20,6 C 59 % 1007,4 hPa 0,0 l/m 2 min 0 min 468 W/m 22,5 km/h (4 Bft) 97,87 %
14.10.2018 13:30 23,8 C 23,9 C 20,6 C 59 % 1007,5 hPa 0,0 l/m 2 min 0 min 468 W/m 25,7 km/h (4 Bft) 93,62 %
14.10.2018 13:32 23,8 C 23,9 C 20,6 C 59 % 1007,4 hPa 0,0 l/m 2 min 0 min 469 W/m 19,3 km/h (3 Bft) 97,87 %
14.10.2018 13:34 23,9 C 23,9 C 20,6 C 59 % 1007,4 hPa 0,0 l/m 2 min 0 min 471 W/m 19,3 km/h (3 Bft) 97,83 %
14.10.2018 13:38 24,1 C 24,4 C 21,1 C 59 % 1007,3 hPa 0,0 l/m 4 min 0 min 472 W/m 16,1 km/h (3 Bft) 97,87 %
14.10.2018 13:40 24,1 C 24,4 C 21,1 C 59 % 1007,3 hPa 0,0 l/m 2 min 0 min 475 W/m 16,1 km/h (3 Bft) 97,87 %
14.10.2018 13:42 24,2 C 24,4 C 21,1 C 59 % 1007,4 hPa 0,0 l/m 2 min 0 min 477 W/m 12,9 km/h (3 Bft) 97,87 %
14.10.2018 13:44 24,2 C 24,4 C 21,1 C 59 % 1007,3 hPa 0,0 l/m 2 min 0 min 488 W/m 19,3 km/h (3 Bft) 97,87 %
14.10.2018 13:46 24,3 C 25,0 C 21,1 C 59 % 1007,3 hPa 0,0 l/m 2 min 0 min 493 W/m 12,9 km/h (3 Bft) 97,83 %
14.10.2018 13:48 24,3 C 25,0 C 21,7 C 58 % 1007,3 hPa 0,0 l/m 2 min 0 min 501 W/m 19,3 km/h (3 Bft) 97,87 %
14.10.2018 13:50 24,4 C 25,0 C 21,7 C 57 % 1007,2 hPa 0,0 l/m 2 min 0 min 523 W/m 16,1 km/h (3 Bft) 97,87 %
14.10.2018 13:52 24,6 C 25,0 C 21,7 C 57 % 1007,2 hPa 0,0 l/m 2 min 0 min 493 W/m 22,5 km/h (4 Bft) 97,87 %
14.10.2018 13:54 24,6 C 25,0 C 21,7 C 57 % 1007,2 hPa 0,0 l/m 2 min 0 min 548 W/m 12,9 km/h (3 Bft) 95,74 %
14.10.2018 13:56 24,7 C 25,6 C 21,7 C 57 % 1007,1 hPa 0,0 l/m 2 min 0 min 506 W/m 12,9 km/h (3 Bft) 97,87 %
14.10.2018 13:58 24,8 C 25,6 C 22,2 C 57 % 1007,1 hPa 0,0 l/m 2 min 0 min 541 W/m 25,7 km/h (4 Bft) 97,83 %
14.10.2018 14:00 24,9 C 25,6 C 22,2 C 56 % 1007,2 hPa 0,0 l/m 2 min 0 min 532 W/m 16,1 km/h (3 Bft) 97,87 %
14.10.2018 14:02 25,0 C 26,1 C 22,2 C 55 % 1007,0 hPa 0,0 l/m 2 min 0 min 528 W/m 12,9 km/h (3 Bft) 96,08 %
14.10.2018 14:04 25,1 C 26,1 C 22,8 C 55 % 1006,9 hPa 0,0 l/m 2 min 0 min 516 W/m 22,5 km/h (4 Bft) 97,87 %
14.10.2018 14:08 25,3 C 25,6 C 22,8 C 55 % 1007,0 hPa 0,0 l/m 4 min 0 min 519 W/m 19,3 km/h (3 Bft) 97,56 %
14.10.2018 14:10 25,4 C 25,6 C 22,8 C 55 % 1006,9 hPa 0,0 l/m 2 min 0 min 516 W/m 22,5 km/h (4 Bft) 97,87 %
14.10.2018 14:12 25,4 C 25,6 C 22,8 C 54 % 1006,9 hPa 0,0 l/m 2 min 0 min 497 W/m 22,5 km/h (4 Bft) 97,87 %
14.10.2018 14:14 25,6 C 26,1 C 22,8 C 53 % 1006,9 hPa 0,0 l/m 2 min 0 min 495 W/m 16,1 km/h (3 Bft) 100,00 %
14.10.2018 14:16 25,6 C 26,1 C 22,8 C 53 % 1006,9 hPa 0,0 l/m 2 min 0 min 309 W/m 32,2 km/h (5 Bft) 100,00 %
14.10.2018 14:18 25,7 C 26,1 C 23,3 C 53 % 1006,8 hPa 0,0 l/m 2 min 0 min 316 W/m 12,9 km/h (3 Bft) 100,00 %
14.10.2018 14:20 25,7 C 26,1 C 23,3 C 53 % 1006,8 hPa 0,0 l/m 2 min 0 min 264 W/m 22,5 km/h (4 Bft) 100,00 %
14.10.2018 14:22 25,8 C 26,1 C 23,3 C 52 % 1006,9 hPa 0,0 l/m 0 min 0 min 177 W/m 22,5 km/h (4 Bft) 100,00 %
14.10.2018 14:24 25,9 C 26,1 C 23,3 C 52 % 1006,8 hPa 0,0 l/m 0 min 0 min 153 W/m 19,3 km/h (3 Bft) 100,00 %
14.10.2018 14:26 25,9 C 26,1 C 23,3 C 52 % 1006,8 hPa 0,0 l/m 0 min 0 min 152 W/m 19,3 km/h (3 Bft) 100,00 %
14.10.2018 14:28 25,9 C 26,1 C 23,3 C 52 % 1006,7 hPa 0,0 l/m 0 min 0 min 146 W/m 16,1 km/h (3 Bft) 100,00 %
14.10.2018 14:30 26,0 C 26,1 C 23,3 C 52 % 1006,7 hPa 0,0 l/m 0 min 0 min 140 W/m 22,5 km/h (4 Bft) 100,00 %
14.10.2018 14:32 26,0 C 26,1 C 23,3 C 52 % 1006,7 hPa 0,0 l/m 0 min 0 min 133 W/m 16,1 km/h (3 Bft) 100,00 %
14.10.2018 14:34 26,1 C 26,1 C 23,3 C 52 % 1006,7 hPa 0,0 l/m 0 min 0 min 132 W/m 19,3 km/h (3 Bft) 100,00 %
14.10.2018 14:38 26,1 C 26,1 C 23,3 C 52 % 1006,7 hPa 0,0 l/m 0 min 0 min 134 W/m 22,5 km/h (4 Bft) 100,00 %
14.10.2018 14:40 26,1 C 26,1 C 23,3 C 52 % 1006,8 hPa 0,0 l/m 0 min 0 min 140 W/m 25,7 km/h (4 Bft) 100,00 %
14.10.2018 14:42 26,2 C 26,1 C 23,3 C 52 % 1006,7 hPa 0,0 l/m 0 min 0 min 143 W/m 16,1 km/h (3 Bft) 100,00 %
14.10.2018 14:44 26,1 C 25,6 C 23,3 C 52 % 1006,6 hPa 0,0 l/m 0 min 0 min 158 W/m 22,5 km/h (4 Bft) 100,00 %
14.10.2018 14:46 26,2 C 26,1 C 23,3 C 52 % 1006,6 hPa 0,0 l/m 0 min 0 min 193 W/m 19,3 km/h (3 Bft) 100,00 %
14.10.2018 14:48 26,2 C 26,1 C 22,8 C 53 % 1006,5 hPa 0,0 l/m 2 min 0 min 251 W/m 12,9 km/h (3 Bft) 100,00 %
14.10.2018 14:50 26,2 C 26,1 C 23,3 C 52 % 1006,6 hPa 0,0 l/m 2 min 0 min 346 W/m 25,7 km/h (4 Bft) 100,00 %
14.10.2018 14:52 26,2 C 26,1 C 23,3 C 52 % 1006,5 hPa 0,0 l/m 2 min 0 min 396 W/m 25,7 km/h (4 Bft) 100,00 %
14.10.2018 14:54 26,2 C 26,1 C 22,8 C 52 % 1006,6 hPa 0,0 l/m 2 min 0 min 391 W/m 19,3 km/h (3 Bft) 100,00 %
14.10.2018 14:56 26,2 C 26,1 C 22,8 C 52 % 1006,4 hPa 0,0 l/m 2 min 0 min 460 W/m 19,3 km/h (3 Bft) 97,83 %
14.10.2018 14:58 26,2 C 26,1 C 22,8 C 51 % 1006,6 hPa 0,0 l/m 2 min 0 min 454 W/m 16,1 km/h (3 Bft) 97,87 %
14.10.2018 15:00 26,2 C 25,6 C 22,8 C 52 % 1006,5 hPa 0,0 l/m 2 min 0 min 446 W/m 25,7 km/h (4 Bft) 97,87 %
14.10.2018 15:02 26,2 C 25,6 C 22,8 C 52 % 1006,5 hPa 0,0 l/m 2 min 0 min 438 W/m 19,3 km/h (3 Bft) 100,00 %
14.10.2018 15:04 26,2 C 25,6 C 22,8 C 51 % 1006,5 hPa 0,0 l/m 2 min 0 min 435 W/m 16,1 km/h (3 Bft) 97,87 %
14.10.2018 15:08 26,2 C 25,6 C 22,8 C 51 % 1006,4 hPa 0,0 l/m 4 min 0 min 429 W/m 29,0 km/h (5 Bft) 98,96 %
14.10.2018 15:10 26,2 C 25,6 C 22,8 C 51 % 1006,5 hPa 0,0 l/m 2 min 0 min 426 W/m 19,3 km/h (3 Bft) 93,62 %
14.10.2018 15:12 26,2 C 25,6 C 22,8 C 51 % 1006,2 hPa 0,0 l/m 2 min 0 min 427 W/m 22,5 km/h (4 Bft) 97,87 %
14.10.2018 15:14 26,2 C 25,6 C 22,8 C 51 % 1006,3 hPa 0,0 l/m 2 min 0 min 424 W/m 32,2 km/h (5 Bft) 97,87 %
14.10.2018 15:16 26,2 C 25,6 C 22,8 C 51 % 1006,4 hPa 0,0 l/m 2 min 0 min 421 W/m 22,5 km/h (4 Bft) 93,62 %
14.10.2018 15:18 26,1 C 25,6 C 22,8 C 51 % 1006,2 hPa 0,0 l/m 2 min 0 min 420 W/m 19,3 km/h (3 Bft) 95,74 %
14.10.2018 15:20 26,1 C 25,6 C 22,8 C 51 % 1006,2 hPa 0,0 l/m 2 min 0 min 410 W/m 12,9 km/h (3 Bft) 95,65 %
14.10.2018 15:22 26,1 C 25,6 C 22,8 C 51 % 1006,2 hPa 0,0 l/m 2 min 0 min 383 W/m 25,7 km/h (4 Bft) 95,74 %
14.10.2018 15:24 26,1 C 25,6 C 22,8 C 51 % 1006,2 hPa 0,0 l/m 2 min 0 min 415 W/m 19,3 km/h (3 Bft) 95,74 %
14.10.2018 15:26 26,1 C 25,6 C 22,8 C 51 % 1006,2 hPa 0,0 l/m 2 min 0 min 410 W/m 35,4 km/h (5 Bft) 93,62 %
14.10.2018 15:28 26,1 C 25,6 C 22,8 C 51 % 1006,1 hPa 0,0 l/m 2 min 0 min 406 W/m 29,0 km/h (5 Bft) 95,74 %
14.10.2018 15:30 26,0 C 25,0 C 22,8 C 51 % 1006,0 hPa 0,0 l/m 2 min 0 min 404 W/m 38,6 km/h (5 Bft) 93,62 %
14.10.2018 15:32 26,0 C 25,0 C 22,8 C 51 % 1005,9 hPa 0,0 l/m 2 min 0 min 403 W/m 32,2 km/h (5 Bft) 95,92 %
14.10.2018 15:34 25,9 C 25,0 C 22,8 C 51 % 1005,9 hPa 0,0 l/m 2 min 0 min 399 W/m 32,2 km/h (5 Bft) 95,65 %
14.10.2018 15:38 25,9 C 25,0 C 22,8 C 51 % 1005,8 hPa 0,0 l/m 4 min 0 min 395 W/m 29,0 km/h (5 Bft) 96,34 %
14.10.2018 15:40 25,9 C 25,6 C 22,8 C 51 % 1005,8 hPa 0,0 l/m 2 min 0 min 392 W/m 25,7 km/h (4 Bft) 95,74 %
14.10.2018 15:42 25,9 C 25,0 C 22,8 C 51 % 1005,8 hPa 0,0 l/m 2 min 0 min 387 W/m 29,0 km/h (5 Bft) 93,62 %
14.10.2018 15:44 25,8 C 25,0 C 22,8 C 51 % 1005,8 hPa 0,0 l/m 2 min 0 min 383 W/m 32,2 km/h (5 Bft) 95,74 %
14.10.2018 15:46 25,8 C 25,0 C 22,8 C 51 % 1005,9 hPa 0,0 l/m 2 min 0 min 380 W/m 29,0 km/h (5 Bft) 95,74 %
14.10.2018 15:48 25,8 C 25,0 C 22,8 C 51 % 1005,7 hPa 0,0 l/m 2 min 0 min 377 W/m 25,7 km/h (4 Bft) 93,62 %
14.10.2018 15:50 25,8 C 25,6 C 22,8 C 52 % 1005,7 hPa 0,0 l/m 2 min 0 min 374 W/m 22,5 km/h (4 Bft) 96,55 %
14.10.2018 15:52 25,8 C 25,0 C 22,8 C 52 % 1005,7 hPa 0,0 l/m 2 min 0 min 370 W/m 25,7 km/h (4 Bft) 97,14 %
14.10.2018 15:54 25,8 C 25,0 C 22,8 C 52 % 1005,7 hPa 0,0 l/m 2 min 0 min 367 W/m 16,1 km/h (3 Bft) 97,87 %
14.10.2018 15:56 25,8 C 25,6 C 22,8 C 52 % 1005,7 hPa 0,0 l/m 2 min 0 min 363 W/m 19,3 km/h (3 Bft) 97,87 %
14.10.2018 15:58 25,8 C 25,6 C 22,8 C 52 % 1005,8 hPa 0,0 l/m 2 min 0 min 360 W/m 19,3 km/h (3 Bft) 95,74 %
14.10.2018 16:00 25,8 C 25,6 C 22,8 C 52 % 1005,6 hPa 0,0 l/m 2 min 0 min 356 W/m 22,5 km/h (4 Bft) 97,87 %
14.10.2018 16:02 25,8 C 25,6 C 22,8 C 53 % 1005,7 hPa 0,0 l/m 2 min 0 min 352 W/m 19,3 km/h (3 Bft) 97,92 %
14.10.2018 16:04 25,8 C 25,0 C 22,8 C 52 % 1005,7 hPa 0,0 l/m 2 min 0 min 347 W/m 32,2 km/h (5 Bft) 97,87 %
14.10.2018 16:08 25,8 C 25,0 C 22,8 C 52 % 1005,8 hPa 0,0 l/m 4 min 0 min 341 W/m 29,0 km/h (5 Bft) 96,04 %
14.10.2018 16:10 25,8 C 25,0 C 22,8 C 52 % 1005,8 hPa 0,0 l/m 2 min 0 min 336 W/m 12,9 km/h (3 Bft) 97,87 %
14.10.2018 16:12 25,8 C 25,0 C 22,8 C 53 % 1005,8 hPa 0,0 l/m 2 min 0 min 331 W/m 29,0 km/h (5 Bft) 100,00 %
14.10.2018 16:14 25,8 C 25,0 C 22,8 C 53 % 1005,9 hPa 0,0 l/m 2 min 0 min 327 W/m 22,5 km/h (4 Bft) 97,87 %
14.10.2018 16:16 25,8 C 25,6 C 22,8 C 53 % 1005,9 hPa 0,0 l/m 2 min 0 min 324 W/m 32,2 km/h (5 Bft) 100,00 %
14.10.2018 16:18 25,8 C 25,0 C 22,8 C 53 % 1005,8 hPa 0,0 l/m 2 min 0 min 318 W/m 25,7 km/h (4 Bft) 100,00 %
14.10.2018 16:20 25,8 C 25,0 C 22,8 C 54 % 1005,8 hPa 0,0 l/m 2 min 0 min 307 W/m 19,3 km/h (3 Bft) 97,87 %
14.10.2018 16:22 25,8 C 25,6 C 22,8 C 54 % 1005,8 hPa 0,0 l/m 2 min 0 min 301 W/m 25,7 km/h (4 Bft) 100,00 %
14.10.2018 16:24 25,8 C 26,1 C 22,2 C 54 % 1005,8 hPa 0,0 l/m 2 min 0 min 304 W/m 19,3 km/h (3 Bft) 97,83 %
14.10.2018 16:26 25,8 C 27,2 C 22,2 C 54 % 1005,8 hPa 0,0 l/m 2 min 0 min 302 W/m 22,5 km/h (4 Bft) 100,00 %
14.10.2018 16:28 25,8 C 27,2 C 22,2 C 54 % 1005,8 hPa 0,0 l/m 2 min 0 min 297 W/m 16,1 km/h (3 Bft) 97,87 %
14.10.2018 16:30 25,8 C 27,2 C 22,2 C 54 % 1005,8 hPa 0,0 l/m 2 min 0 min 293 W/m 16,1 km/h (3 Bft) 100,00 %
14.10.2018 16:32 25,8 C 27,8 C 22,2 C 54 % 1005,8 hPa 0,0 l/m 2 min 0 min 290 W/m 19,3 km/h (3 Bft) 100,00 %
14.10.2018 16:34 25,7 C 27,2 C 22,2 C 54 % 1005,9 hPa 0,0 l/m 2 min 0 min 283 W/m 9,7 km/h (2 Bft) 97,87 %
14.10.2018 16:38 25,7 C 25,6 C 21,7 C 54 % 1005,9 hPa 0,0 l/m 4 min 0 min 279 W/m 19,3 km/h (3 Bft) 100,00 %
14.10.2018 16:40 25,7 C 25,6 C 21,7 C 54 % 1005,8 hPa 0,0 l/m 2 min 0 min 274 W/m 19,3 km/h (3 Bft) 97,87 %
14.10.2018 16:42 25,7 C 26,1 C 21,7 C 54 % 1005,9 hPa 0,0 l/m 2 min 0 min 268 W/m 19,3 km/h (3 Bft) 95,74 %
14.10.2018 16:44 25,6 C 25,6 C 21,7 C 55 % 1005,9 hPa 0,0 l/m 2 min 0 min 265 W/m 12,9 km/h (3 Bft) 97,83 %
14.10.2018 16:46 25,6 C 26,1 C 21,7 C 55 % 1005,9 hPa 0,0 l/m 2 min 0 min 258 W/m 22,5 km/h (4 Bft) 97,87 %
14.10.2018 16:48 25,6 C 26,1 C 21,7 C 54 % 1005,9 hPa 0,0 l/m 2 min 0 min 235 W/m 12,9 km/h (3 Bft) 95,74 %
14.10.2018 16:50 25,6 C 26,1 C 22,2 C 55 % 1005,8 hPa 0,0 l/m 2 min 0 min 248 W/m 16,1 km/h (3 Bft) 98,31 %
14.10.2018 16:52 25,6 C 25,6 C 21,7 C 55 % 1005,8 hPa 0,0 l/m 2 min 0 min 251 W/m 16,1 km/h (3 Bft) 97,22 %
14.10.2018 16:54 25,6 C 25,0 C 21,7 C 55 % 1005,8 hPa 0,0 l/m 2 min 0 min 247 W/m 19,3 km/h (3 Bft) 95,74 %
14.10.2018 16:56 25,5 C 25,0 C 21,7 C 55 % 1005,9 hPa 0,0 l/m 2 min 0 min 241 W/m 12,9 km/h (3 Bft) 97,83 %
14.10.2018 16:58 25,5 C 25,0 C 22,2 C 55 % 1005,9 hPa 0,0 l/m 2 min 0 min 236 W/m 22,5 km/h (4 Bft) 97,87 %
14.10.2018 17:00 25,4 C 25,0 C 21,7 C 55 % 1005,9 hPa 0,0 l/m 2 min 0 min 163 W/m 22,5 km/h (4 Bft) 97,87 %
14.10.2018 17:02 25,4 C 24,4 C 21,7 C 55 % 1005,9 hPa 0,0 l/m 0 min 0 min 107 W/m 29,0 km/h (5 Bft) 97,87 %
14.10.2018 17:04 25,4 C 24,4 C 21,7 C 55 % 1005,9 hPa 0,0 l/m 2 min 0 min 126 W/m 12,9 km/h (3 Bft) 97,87 %
14.10.2018 17:08 25,3 C 24,4 C 21,7 C 55 % 1005,8 hPa 0,0 l/m 0 min 0 min 45 W/m 22,5 km/h (4 Bft) 97,94 %
14.10.2018 17:10 25,3 C 24,4 C 21,7 C 55 % 1005,9 hPa 0,0 l/m 0 min 0 min 42 W/m 19,3 km/h (3 Bft) 97,87 %
14.10.2018 17:12 25,2 C 23,9 C 21,7 C 55 % 1005,8 hPa 0,0 l/m 0 min 0 min 44 W/m 19,3 km/h (3 Bft) 97,87 %
14.10.2018 17:14 25,2 C 24,4 C 21,7 C 55 % 1005,9 hPa 0,0 l/m 0 min 0 min 44 W/m 9,7 km/h (2 Bft) 97,87 %
14.10.2018 17:16 25,1 C 23,9 C 21,7 C 56 % 1005,9 hPa 0,0 l/m 0 min 0 min 44 W/m 12,9 km/h (3 Bft) 93,48 %
14.10.2018 17:18 25,1 C 23,9 C 21,7 C 55 % 1005,9 hPa 0,0 l/m 0 min 0 min 43 W/m 16,1 km/h (3 Bft) 97,87 %
14.10.2018 17:20 25,1 C 23,9 C 21,7 C 55 % 1005,9 hPa 0,0 l/m 0 min 0 min 39 W/m 25,7 km/h (4 Bft) 93,62 %
14.10.2018 17:22 25,1 C 23,9 C 21,7 C 55 % 1005,8 hPa 0,0 l/m 0 min 0 min 36 W/m 22,5 km/h (4 Bft) 95,83 %
14.10.2018 17:24 25,1 C 23,9 C 21,7 C 55 % 1005,8 hPa 0,0 l/m 0 min 0 min 34 W/m 9,7 km/h (2 Bft) 97,87 %
14.10.2018 17:26 25,0 C 23,9 C 21,7 C 55 % 1005,8 hPa 0,0 l/m 0 min 0 min 32 W/m 22,5 km/h (4 Bft) 97,14 %
14.10.2018 17:28 24,9 C 23,9 C 21,7 C 55 % 1005,9 hPa 0,0 l/m 0 min 0 min 31 W/m 9,7 km/h (2 Bft) 98,31 %
14.10.2018 17:30 24,9 C 23,9 C 21,7 C 55 % 1005,9 hPa 0,0 l/m 0 min 0 min 30 W/m 16,1 km/h (3 Bft) 97,87 %
14.10.2018 17:32 24,9 C 23,9 C 21,7 C 55 % 1005,8 hPa 0,0 l/m 0 min 0 min 29 W/m 16,1 km/h (3 Bft) 97,83 %
14.10.2018 17:34 24,8 C 23,9 C 21,7 C 55 % 1005,8 hPa 0,0 l/m 0 min 0 min 28 W/m 16,1 km/h (3 Bft) 97,87 %
14.10.2018 17:38 24,8 C 23,3 C 21,1 C 56 % 1005,9 hPa 0,0 l/m 0 min 0 min 26 W/m 19,3 km/h (3 Bft) 98,94 %
14.10.2018 17:40 24,7 C 23,3 C 21,1 C 56 % 1005,9 hPa 0,0 l/m 0 min 0 min 25 W/m 12,9 km/h (3 Bft) 97,87 %
14.10.2018 17:42 24,7 C 23,3 C 20,6 C 56 % 1005,9 hPa 0,0 l/m 0 min 0 min 24 W/m 12,9 km/h (3 Bft) 97,87 %
14.10.2018 17:44 24,6 C 23,3 C 20,6 C 57 % 1005,9 hPa 0,0 l/m 0 min 0 min 23 W/m 12,9 km/h (3 Bft) 97,87 %
14.10.2018 17:46 24,6 C 23,3 C 20,6 C 57 % 1005,9 hPa 0,0 l/m 0 min 0 min 21 W/m 12,9 km/h (3 Bft) 95,65 %
14.10.2018 17:48 24,5 C 22,8 C 20,0 C 57 % 1006,0 hPa 0,0 l/m 0 min 0 min 20 W/m 9,7 km/h (2 Bft) 97,87 %
14.10.2018 17:50 24,5 C 22,8 C 20,0 C 57 % 1005,9 hPa 0,0 l/m 0 min 0 min 19 W/m 9,7 km/h (2 Bft) 97,87 %
14.10.2018 17:52 24,4 C 22,8 C 20,0 C 56 % 1005,9 hPa 0,0 l/m 0 min 0 min 19 W/m 9,7 km/h (2 Bft) 97,87 %
14.10.2018 17:54 24,4 C 22,8 C 20,0 C 57 % 1005,9 hPa 0,0 l/m 0 min 0 min 18 W/m 9,7 km/h (2 Bft) 97,87 %
14.10.2018 17:56 24,3 C 22,8 C 20,0 C 57 % 1006,0 hPa 0,0 l/m 0 min 0 min 18 W/m 12,9 km/h (3 Bft) 97,83 %
14.10.2018 17:58 24,3 C 22,8 C 20,0 C 57 % 1006,0 hPa 0,0 l/m 0 min 0 min 16 W/m 16,1 km/h (3 Bft) 97,87 %
14.10.2018 18:00 24,2 C 22,8 C 20,0 C 57 % 1005,9 hPa 0,0 l/m 0 min 0 min 16 W/m 16,1 km/h (3 Bft) 97,87 %
14.10.2018 18:02 24,1 C 22,8 C 20,0 C 57 % 1006,0 hPa 0,0 l/m 0 min 0 min 16 W/m 16,1 km/h (3 Bft) 95,74 %
14.10.2018 18:04 24,1 C 22,8 C 20,0 C 57 % 1005,9 hPa 0,0 l/m 0 min 0 min 15 W/m 19,3 km/h (3 Bft) 97,87 %
14.10.2018 18:08 23,9 C 22,8 C 20,0 C 58 % 1006,0 hPa 0,0 l/m 0 min 0 min 14 W/m 12,9 km/h (3 Bft) 97,85 %
14.10.2018 18:10 23,9 C 22,8 C 20,0 C 57 % 1006,0 hPa 0,0 l/m 0 min 0 min 12 W/m 16,1 km/h (3 Bft) 97,87 %
14.10.2018 18:12 23,8 C 22,8 C 20,0 C 57 % 1006,0 hPa 0,0 l/m 0 min 0 min 12 W/m 16,1 km/h (3 Bft) 97,87 %
14.10.2018 18:14 23,8 C 22,2 C 20,0 C 58 % 1006,0 hPa 0,0 l/m 0 min 0 min 12 W/m 9,7 km/h (2 Bft) 97,87 %
14.10.2018 18:16 23,7 C 22,2 C 19,4 C 58 % 1006,1 hPa 0,0 l/m 0 min 0 min 11 W/m 12,9 km/h (3 Bft) 97,87 %
14.10.2018 18:18 23,7 C 22,2 C 19,4 C 58 % 1006,0 hPa 0,0 l/m 0 min 0 min 11 W/m 12,9 km/h (3 Bft) 97,87 %
14.10.2018 18:20 23,6 C 22,2 C 19,4 C 58 % 1006,1 hPa 0,0 l/m 0 min 0 min 11 W/m 12,9 km/h (3 Bft) 95,65 %
14.10.2018 18:22 23,6 C 22,2 C 19,4 C 58 % 1006,1 hPa 0,0 l/m 0 min 0 min 10 W/m 9,7 km/h (2 Bft) 97,87 %
14.10.2018 18:24 23,5 C 22,2 C 19,4 C 58 % 1006,2 hPa 0,0 l/m 0 min 0 min 9 W/m 6,4 km/h (2 Bft) 100,00 %
14.10.2018 18:26 23,4 C 22,2 C 19,4 C 58 % 1006,2 hPa 0,0 l/m 0 min 0 min 9 W/m 6,4 km/h (2 Bft) 100,00 %
14.10.2018 18:28 23,4 C 21,7 C 19,4 C 58 % 1006,2 hPa 0,0 l/m 0 min 0 min 9 W/m 6,4 km/h (2 Bft) 97,87 %
14.10.2018 18:30 23,4 C 21,7 C 19,4 C 58 % 1006,2 hPa 0,0 l/m 0 min 0 min 9 W/m 9,7 km/h (2 Bft) 95,74 %
14.10.2018 18:32 23,3 C 21,7 C 19,4 C 58 % 1006,2 hPa 0,0 l/m 0 min 0 min 9 W/m 9,7 km/h (2 Bft) 97,14 %
14.10.2018 18:34 23,3 C 21,7 C 19,4 C 58 % 1006,3 hPa 0,0 l/m 0 min 0 min 9 W/m 9,7 km/h (2 Bft) 97,83 %
14.10.2018 18:38 23,2 C 21,7 C 19,4 C 58 % 1006,3 hPa 0,0 l/m 0 min 0 min 8 W/m 9,7 km/h (2 Bft) 98,02 %
14.10.2018 18:40 23,2 C 21,7 C 19,4 C 59 % 1006,2 hPa 0,0 l/m 0 min 0 min 6 W/m 0,0 km/h (0 Bft) 95,65 %
14.10.2018 18:42 23,2 C 21,1 C 19,4 C 59 % 1006,2 hPa 0,0 l/m 0 min 0 min 5 W/m 9,7 km/h (2 Bft) 95,74 %
14.10.2018 18:44 23,1 C 21,1 C 19,4 C 59 % 1006,2 hPa 0,0 l/m 0 min 0 min 5 W/m 3,2 km/h (1 Bft) 95,74 %
14.10.2018 18:46 23,1 C 21,1 C 18,9 C 59 % 1006,2 hPa 0,0 l/m 0 min 0 min 1 W/m 6,4 km/h (2 Bft) 95,12 %
14.10.2018 18:48 23,0 C 21,1 C 18,9 C 59 % 1006,2 hPa 0,0 l/m 0 min 0 min 0 W/m 6,4 km/h (2 Bft) 97,87 %
14.10.2018 18:50 22,9 C 21,1 C 18,9 C 59 % 1006,2 hPa 0,0 l/m 0 min 0 min 0 W/m 9,7 km/h (2 Bft) 95,74 %
14.10.2018 18:52 22,9 C 21,1 C 18,9 C 60 % 1006,3 hPa 0,0 l/m 0 min 0 min 0 W/m 6,4 km/h (2 Bft) 97,87 %
14.10.2018 18:54 22,8 C 21,1 C 18,9 C 60 % 1006,3 hPa 0,0 l/m 0 min 0 min 0 W/m 3,2 km/h (1 Bft) 97,87 %
14.10.2018 18:56 22,8 C 21,1 C 18,9 C 60 % 1006,3 hPa 0,0 l/m 0 min 0 min 0 W/m 6,4 km/h (2 Bft) 97,87 %
14.10.2018 18:58 22,8 C 21,1 C 18,9 C 60 % 1006,4 hPa 0,0 l/m 0 min 0 min 0 W/m 6,4 km/h (2 Bft) 97,83 %
14.10.2018 19:00 22,7 C 20,6 C 18,9 C 60 % 1006,5 hPa 0,0 l/m 0 min 0 min 0 W/m 3,2 km/h (1 Bft) 95,74 %
14.10.2018 19:02 22,6 C 20,6 C 18,3 C 60 % 1006,5 hPa 0,0 l/m 0 min 0 min 0 W/m 6,4 km/h (2 Bft) 95,92 %
14.10.2018 19:04 22,6 C 20,6 C 18,3 C 60 % 1006,5 hPa 0,0 l/m 0 min 0 min 0 W/m 6,4 km/h (2 Bft) 97,87 %
14.10.2018 19:08 22,4 C 20,6 C 18,3 C 60 % 1006,5 hPa 0,0 l/m 0 min 0 min 0 W/m 6,4 km/h (2 Bft) 97,00 %
14.10.2018 19:10 22,4 C 20,6 C 18,3 C 61 % 1006,5 hPa 0,0 l/m 0 min 0 min 0 W/m 6,4 km/h (2 Bft) 97,87 %
14.10.2018 19:12 22,3 C 20,6 C 18,3 C 61 % 1006,6 hPa 0,0 l/m 0 min 0 min 0 W/m 9,7 km/h (2 Bft) 97,87 %
14.10.2018 19:14 22,3 C 20,6 C 18,3 C 61 % 1006,7 hPa 0,0 l/m 0 min 0 min 0 W/m 6,4 km/h (2 Bft) 97,83 %
14.10.2018 19:16 22,2 C 20,6 C 18,3 C 61 % 1006,7 hPa 0,0 l/m 0 min 0 min 0 W/m 6,4 km/h (2 Bft) 97,78 %
14.10.2018 19:18 22,2 C 20,0 C 18,3 C 61 % 1006,6 hPa 0,0 l/m 0 min 0 min 0 W/m 6,4 km/h (2 Bft) 97,87 %
14.10.2018 19:20 22,1 C 20,0 C 18,3 C 61 % 1006,6 hPa 0,0 l/m 0 min 0 min 0 W/m 9,7 km/h (2 Bft) 97,83 %
14.10.2018 19:22 22,0 C 20,6 C 18,3 C 61 % 1006,6 hPa 0,0 l/m 0 min 0 min 0 W/m 9,7 km/h (2 Bft) 97,87 %
14.10.2018 19:24 21,9 C 20,0 C 18,3 C 62 % 1006,6 hPa 0,0 l/m 0 min 0 min 0 W/m 9,7 km/h (2 Bft) 97,87 %
14.10.2018 19:26 21,9 C 20,0 C 18,3 C 62 % 1006,6 hPa 0,0 l/m 0 min 0 min 0 W/m 6,4 km/h (2 Bft) 97,87 %
14.10.2018 19:28 21,8 C 20,0 C 18,3 C 62 % 1006,6 hPa 0,0 l/m 0 min 0 min 0 W/m 12,9 km/h (3 Bft) 97,87 %
14.10.2018 19:30 21,8 C 20,0 C 18,3 C 62 % 1006,6 hPa 0,0 l/m 0 min 0 min 0 W/m 9,7 km/h (2 Bft) 97,87 %
14.10.2018 19:32 21,7 C 20,0 C 18,3 C 62 % 1006,6 hPa 0,0 l/m 0 min 0 min 0 W/m 9,7 km/h (2 Bft) 100,00 %
14.10.2018 19:34 21,7 C 20,0 C 18,3 C 62 % 1006,5 hPa 0,0 l/m 0 min 0 min 0 W/m 6,4 km/h (2 Bft) 97,87 %
14.10.2018 19:38 21,6 C 20,0 C 18,3 C 62 % 1006,5 hPa 0,0 l/m 0 min 0 min 0 W/m 9,7 km/h (2 Bft) 99,00 %
14.10.2018 19:40 21,5 C 20,0 C 18,3 C 62 % 1006,5 hPa 0,0 l/m 0 min 0 min 0 W/m 9,7 km/h (2 Bft) 100,00 %
14.10.2018 19:42 21,4 C 20,0 C 18,3 C 62 % 1006,6 hPa 0,0 l/m 0 min 0 min 0 W/m 9,7 km/h (2 Bft) 100,00 %
14.10.2018 19:44 21,4 C 20,0 C 18,3 C 63 % 1006,6 hPa 0,0 l/m 0 min 0 min 0 W/m 9,7 km/h (2 Bft) 95,74 %
14.10.2018 19:46 21,3 C 20,0 C 18,3 C 63 % 1006,6 hPa 0,0 l/m 0 min 0 min 0 W/m 9,7 km/h (2 Bft) 97,56 %
14.10.2018 19:48 21,3 C 20,0 C 18,3 C 63 % 1006,6 hPa 0,0 l/m 0 min 0 min 0 W/m 9,7 km/h (2 Bft) 97,87 %
14.10.2018 19:50 21,2 C 20,0 C 18,3 C 63 % 1006,6 hPa 0,0 l/m 0 min 0 min 0 W/m 9,7 km/h (2 Bft) 97,87 %
14.10.2018 19:52 21,2 C 20,0 C 18,3 C 63 % 1006,7 hPa 0,0 l/m 0 min 0 min 0 W/m 19,3 km/h (3 Bft) 95,74 %
14.10.2018 19:54 21,2 C 20,0 C 18,3 C 63 % 1006,7 hPa 0,0 l/m 0 min 0 min 0 W/m 9,7 km/h (2 Bft) 97,83 %
14.10.2018 19:56 21,1 C 20,0 C 18,3 C 63 % 1006,6 hPa 0,0 l/m 0 min 0 min 0 W/m 9,7 km/h (2 Bft) 97,87 %
14.10.2018 19:58 21,1 C 20,0 C 18,3 C 63 % 1006,8 hPa 0,0 l/m 0 min 0 min 0 W/m 9,7 km/h (2 Bft) 97,87 %
14.10.2018 20:00 21,1 C 20,0 C 18,3 C 63 % 1006,7 hPa 0,0 l/m 0 min 0 min 0 W/m 9,7 km/h (2 Bft) 97,87 %
14.10.2018 20:02 21,0 C 20,0 C 18,3 C 63 % 1006,7 hPa 0,0 l/m 0 min 0 min 0 W/m 12,9 km/h (3 Bft) 94,44 %
14.10.2018 20:04 21,0 C 20,0 C 18,3 C 63 % 1006,9 hPa 0,0 l/m 0 min 0 min 0 W/m 9,7 km/h (2 Bft) 97,87 %
14.10.2018 20:08 21,0 C 20,0 C 17,8 C 63 % 1006,8 hPa 0,0 l/m 0 min 0 min 0 W/m 12,9 km/h (3 Bft) 97,67 %
14.10.2018 20:10 20,9 C 20,0 C 17,8 C 63 % 1006,8 hPa 0,0 l/m 0 min 0 min 0 W/m 6,4 km/h (2 Bft) 97,87 %
14.10.2018 20:12 20,9 C 20,0 C 17,8 C 63 % 1006,8 hPa 0,0 l/m 0 min 0 min 0 W/m 12,9 km/h (3 Bft) 97,87 %
14.10.2018 20:14 20,8 C 20,0 C 17,8 C 63 % 1006,8 hPa 0,0 l/m 0 min 0 min 0 W/m 12,9 km/h (3 Bft) 97,83 %
14.10.2018 20:16 20,8 C 19,4 C 17,8 C 63 % 1006,8 hPa 0,0 l/m 0 min 0 min 0 W/m 6,4 km/h (2 Bft) 95,74 %
14.10.2018 20:18 20,8 C 19,4 C 17,8 C 64 % 1006,8 hPa 0,0 l/m 0 min 0 min 0 W/m 6,4 km/h (2 Bft) 97,87 %
14.10.2018 20:20 20,8 C 19,4 C 17,8 C 64 % 1006,9 hPa 0,0 l/m 0 min 0 min 0 W/m 9,7 km/h (2 Bft) 95,74 %
14.10.2018 20:22 20,7 C 19,4 C 17,8 C 64 % 1006,8 hPa 0,0 l/m 0 min 0 min 0 W/m 9,7 km/h (2 Bft) 93,75 %
14.10.2018 20:24 20,7 C 19,4 C 17,8 C 64 % 1006,8 hPa 0,0 l/m 0 min 0 min 0 W/m 9,7 km/h (2 Bft) 93,48 %
14.10.2018 20:26 20,7 C 19,4 C 17,8 C 64 % 1006,8 hPa 0,0 l/m 0 min 0 min 0 W/m 9,7 km/h (2 Bft) 95,74 %
14.10.2018 20:28 20,7 C 19,4 C 17,8 C 64 % 1006,8 hPa 0,0 l/m 0 min 0 min 0 W/m 6,4 km/h (2 Bft) 95,74 %
14.10.2018 20:30 20,6 C 19,4 C 17,8 C 64 % 1006,8 hPa 0,0 l/m 0 min 0 min 0 W/m 9,7 km/h (2 Bft) 95,74 %
14.10.2018 20:32 20,6 C 19,4 C 17,8 C 64 % 1006,8 hPa 0,0 l/m 0 min 0 min 0 W/m 6,4 km/h (2 Bft) 95,83 %
14.10.2018 20:34 20,6 C 18,9 C 17,8 C 64 % 1006,9 hPa 0,0 l/m 0 min 0 min 0 W/m 9,7 km/h (2 Bft) 97,87 %
14.10.2018 20:38 20,5 C 18,9 C 17,2 C 64 % 1007,0 hPa 0,0 l/m 0 min 0 min 0 W/m 6,4 km/h (2 Bft) 97,87 %
14.10.2018 20:40 20,4 C 18,9 C 17,2 C 64 % 1006,9 hPa 0,0 l/m 0 min 0 min 0 W/m 3,2 km/h (1 Bft) 95,65 %
14.10.2018 20:42 20,4 C 18,9 C 17,2 C 65 % 1006,9 hPa 0,0 l/m 0 min 0 min 0 W/m 6,4 km/h (2 Bft) 97,87 %
14.10.2018 20:44 20,4 C 18,9 C 17,2 C 65 % 1006,9 hPa 0,0 l/m 0 min 0 min 0 W/m 6,4 km/h (2 Bft) 97,87 %
14.10.2018 20:46 20,3 C 18,9 C 17,2 C 65 % 1006,9 hPa 0,0 l/m 0 min 0 min 0 W/m 6,4 km/h (2 Bft) 97,92 %
14.10.2018 20:48 20,3 C 18,9 C 17,2 C 65 % 1006,8 hPa 0,0 l/m 0 min 0 min 0 W/m 9,7 km/h (2 Bft) 97,87 %
14.10.2018 20:50 20,2 C 18,9 C 17,2 C 65 % 1006,9 hPa 0,0 l/m 0 min 0 min 0 W/m 9,7 km/h (2 Bft) 97,87 %
14.10.2018 20:52 20,2 C 18,3 C 17,2 C 65 % 1006,9 hPa 0,0 l/m 0 min 0 min 0 W/m 9,7 km/h (2 Bft) 97,83 %
14.10.2018 20:54 20,2 C 18,3 C 17,2 C 65 % 1006,9 hPa 0,0 l/m 0 min 0 min 0 W/m 6,4 km/h (2 Bft) 97,87 %
14.10.2018 20:56 20,1 C 18,3 C 17,2 C 65 % 1006,8 hPa 0,0 l/m 0 min 0 min 0 W/m 9,7 km/h (2 Bft) 95,74 %
14.10.2018 20:58 20,1 C 18,9 C 17,2 C 66 % 1006,8 hPa 0,0 l/m 0 min 0 min 0 W/m 9,7 km/h (2 Bft) 97,87 %
14.10.2018 21:00 20,0 C 18,3 C 17,2 C 66 % 1006,8 hPa 0,0 l/m 0 min 0 min 0 W/m 9,7 km/h (2 Bft) 97,87 %
14.10.2018 21:02 20,0 C 18,3 C 17,2 C 66 % 1006,8 hPa 0,0 l/m 0 min 0 min 0 W/m 6,4 km/h (2 Bft) 97,96 %
14.10.2018 21:04 19,9 C 18,3 C 17,2 C 66 % 1006,9 hPa 0,0 l/m 0 min 0 min 0 W/m 9,7 km/h (2 Bft) 97,87 %
14.10.2018 21:08 19,8 C 18,3 C 17,2 C 66 % 1006,9 hPa 0,0 l/m 0 min 0 min 0 W/m 9,7 km/h (2 Bft) 97,56 %
14.10.2018 21:10 19,8 C 18,9 C 17,2 C 66 % 1006,8 hPa 0,0 l/m 0 min 0 min 0 W/m 9,7 km/h (2 Bft) 100,00 %
14.10.2018 21:12 19,8 C 18,9 C 17,2 C 66 % 1006,9 hPa 0,0 l/m 0 min 0 min 0 W/m 9,7 km/h (2 Bft) 97,87 %
14.10.2018 21:14 19,7 C 18,3 C 17,2 C 67 % 1006,8 hPa 0,0 l/m 0 min 0 min 0 W/m 6,4 km/h (2 Bft) 100,00 %
14.10.2018 21:16 19,7 C 18,3 C 17,2 C 67 % 1006,8 hPa 0,0 l/m 0 min 0 min 0 W/m 6,4 km/h (2 Bft) 100,00 %
14.10.2018 21:18 19,7 C 18,9 C 17,2 C 67 % 1006,8 hPa 0,0 l/m 0 min 0 min 0 W/m 9,7 km/h (2 Bft) 100,00 %
14.10.2018 21:20 19,6 C 18,3 C 17,2 C 67 % 1006,8 hPa 0,0 l/m 0 min 0 min 0 W/m 9,7 km/h (2 Bft) 97,87 %
14.10.2018 21:22 19,6 C 18,3 C 17,2 C 67 % 1006,8 hPa 0,0 l/m 0 min 0 min 0 W/m 6,4 km/h (2 Bft) 100,00 %
14.10.2018 21:24 19,6 C 18,3 C 17,2 C 67 % 1006,9 hPa 0,0 l/m 0 min 0 min 0 W/m 3,2 km/h (1 Bft) 100,00 %
14.10.2018 21:26 19,6 C 18,3 C 17,2 C 67 % 1006,9 hPa 0,0 l/m 0 min 0 min 0 W/m 3,2 km/h (1 Bft) 97,87 %
14.10.2018 21:28 19,5 C 18,3 C 17,2 C 67 % 1006,9 hPa 0,0 l/m 0 min 0 min 0 W/m 9,7 km/h (2 Bft) 95,74 %
14.10.2018 21:30 19,5 C 18,3 C 16,7 C 67 % 1006,8 hPa 0,0 l/m 0 min 0 min 0 W/m 9,7 km/h (2 Bft) 100,00 %
14.10.2018 21:32 19,5 C 18,3 C 16,7 C 68 % 1006,8 hPa 0,0 l/m 0 min 0 min 0 W/m 3,2 km/h (1 Bft) 100,00 %
14.10.2018 21:34 19,4 C 18,3 C 16,7 C 68 % 1006,8 hPa 0,0 l/m 0 min 0 min 0 W/m 9,7 km/h (2 Bft) 100,00 %
14.10.2018 21:38 19,4 C 18,3 C 16,7 C 68 % 1006,8 hPa 0,0 l/m 0 min 0 min 0 W/m 6,4 km/h (2 Bft) 100,00 %
14.10.2018 21:40 19,4 C 17,8 C 16,7 C 68 % 1006,8 hPa 0,0 l/m 0 min 0 min 0 W/m 3,2 km/h (1 Bft) 100,00 %
14.10.2018 21:42 19,3 C 17,8 C 16,7 C 68 % 1006,9 hPa 0,0 l/m 0 min 0 min 0 W/m 3,2 km/h (1 Bft) 100,00 %
14.10.2018 21:44 19,3 C 18,3 C 16,7 C 68 % 1006,9 hPa 0,0 l/m 0 min 0 min 0 W/m 9,7 km/h (2 Bft) 100,00 %
14.10.2018 21:46 19,3 C 17,8 C 16,7 C 68 % 1006,9 hPa 0,0 l/m 0 min 0 min 0 W/m 6,4 km/h (2 Bft) 100,00 %
14.10.2018 21:48 19,2 C 17,8 C 16,7 C 68 % 1006,9 hPa 0,0 l/m 0 min 0 min 0 W/m 6,4 km/h (2 Bft) 100,00 %
14.10.2018 21:50 19,2 C 17,8 C 16,7 C 68 % 1006,9 hPa 0,0 l/m 0 min 0 min 0 W/m 9,7 km/h (2 Bft) 97,87 %
14.10.2018 21:52 19,2 C 17,8 C 16,7 C 68 % 1006,9 hPa 0,0 l/m 0 min 0 min 0 W/m 9,7 km/h (2 Bft) 97,87 %
14.10.2018 21:54 19,1 C 17,8 C 16,7 C 68 % 1006,9 hPa 0,0 l/m 0 min 0 min 0 W/m 6,4 km/h (2 Bft) 100,00 %
14.10.2018 21:56 19,1 C 17,8 C 16,7 C 69 % 1007,0 hPa 0,0 l/m 0 min 0 min 0 W/m 6,4 km/h (2 Bft) 100,00 %
14.10.2018 21:58 19,1 C 17,8 C 16,7 C 69 % 1007,0 hPa 0,0 l/m 0 min 0 min 0 W/m 6,4 km/h (2 Bft) 100,00 %
14.10.2018 22:00 19,1 C 17,8 C 16,7 C 69 % 1006,9 hPa 0,0 l/m 0 min 0 min 0 W/m 9,7 km/h (2 Bft) 100,00 %
14.10.2018 22:02 19,1 C 17,8 C 16,7 C 69 % 1006,9 hPa 0,0 l/m 0 min 0 min 0 W/m 6,4 km/h (2 Bft) 95,92 %
14.10.2018 22:04 19,0 C 17,8 C 16,7 C 69 % 1007,0 hPa 0,0 l/m 0 min 0 min 0 W/m 9,7 km/h (2 Bft) 97,87 %
14.10.2018 22:08 18,9 C 17,8 C 16,7 C 69 % 1007,0 hPa 0,0 l/m 0 min 0 min 0 W/m 9,7 km/h (2 Bft) 97,56 %
14.10.2018 22:10 18,9 C 17,8 C 16,7 C 69 % 1007,0 hPa 0,0 l/m 0 min 0 min 0 W/m 6,4 km/h (2 Bft) 97,87 %
14.10.2018 22:12 18,9 C 17,8 C 16,7 C 69 % 1007,0 hPa 0,0 l/m 0 min 0 min 0 W/m 6,4 km/h (2 Bft) 97,87 %
14.10.2018 22:14 18,9 C 17,8 C 16,7 C 69 % 1007,0 hPa 0,0 l/m 0 min 0 min 0 W/m 9,7 km/h (2 Bft) 97,87 %
14.10.2018 22:16 18,8 C 17,8 C 16,7 C 69 % 1007,1 hPa 0,0 l/m 0 min 0 min 0 W/m 6,4 km/h (2 Bft) 95,74 %
14.10.2018 22:18 18,8 C 17,8 C 16,7 C 69 % 1007,1 hPa 0,0 l/m 0 min 0 min 0 W/m 6,4 km/h (2 Bft) 97,87 %
14.10.2018 22:20 18,8 C 17,8 C 16,7 C 69 % 1007,1 hPa 0,0 l/m 0 min 0 min 0 W/m 6,4 km/h (2 Bft) 97,87 %
14.10.2018 22:22 18,8 C 17,8 C 16,7 C 69 % 1007,1 hPa 0,0 l/m 0 min 0 min 0 W/m 9,7 km/h (2 Bft) 97,87 %
14.10.2018 22:24 18,7 C 17,8 C 16,7 C 70 % 1007,1 hPa 0,0 l/m 0 min 0 min 0 W/m 6,4 km/h (2 Bft) 95,74 %
14.10.2018 22:26 18,7 C 17,8 C 16,7 C 70 % 1007,1 hPa 0,0 l/m 0 min 0 min 0 W/m 6,4 km/h (2 Bft) 97,87 %
14.10.2018 22:28 18,7 C 17,2 C 16,1 C 70 % 1007,2 hPa 0,0 l/m 0 min 0 min 0 W/m 6,4 km/h (2 Bft) 95,65 %
14.10.2018 22:30 18,7 C 17,2 C 16,1 C 70 % 1007,2 hPa 0,0 l/m 0 min 0 min 0 W/m 6,4 km/h (2 Bft) 95,74 %
14.10.2018 22:32 18,6 C 17,2 C 16,1 C 70 % 1007,2 hPa 0,0 l/m 0 min 0 min 0 W/m 9,7 km/h (2 Bft) 95,92 %
14.10.2018 22:34 18,6 C 17,2 C 16,1 C 70 % 1007,2 hPa 0,0 l/m 0 min 0 min 0 W/m 6,4 km/h (2 Bft) 93,48 %
14.10.2018 22:38 18,6 C 17,2 C 16,1 C 70 % 1007,3 hPa 0,0 l/m 0 min 0 min 0 W/m 9,7 km/h (2 Bft) 94,74 %
14.10.2018 22:40 18,5 C 17,2 C 16,1 C 70 % 1007,3 hPa 0,0 l/m 0 min 0 min 0 W/m 6,4 km/h (2 Bft) 93,48 %
14.10.2018 22:42 18,5 C 17,2 C 16,1 C 70 % 1007,3 hPa 0,0 l/m 0 min 0 min 0 W/m 9,7 km/h (2 Bft) 93,62 %
14.10.2018 22:44 18,4 C 17,2 C 16,1 C 70 % 1007,3 hPa 0,0 l/m 0 min 0 min 0 W/m 6,4 km/h (2 Bft) 95,74 %
14.10.2018 22:46 18,4 C 17,2 C 16,1 C 71 % 1007,5 hPa 0,0 l/m 0 min 0 min 0 W/m 12,9 km/h (3 Bft) 95,74 %
14.10.2018 22:48 18,4 C 17,2 C 16,1 C 71 % 1007,4 hPa 0,0 l/m 0 min 0 min 0 W/m 6,4 km/h (2 Bft) 93,62 %
14.10.2018 22:50 18,3 C 17,2 C 16,1 C 71 % 1007,3 hPa 0,0 l/m 0 min 0 min 0 W/m 6,4 km/h (2 Bft) 93,62 %
14.10.2018 22:52 18,3 C 17,2 C 16,1 C 71 % 1007,4 hPa 0,0 l/m 0 min 0 min 0 W/m 9,7 km/h (2 Bft) 95,74 %
14.10.2018 22:54 18,3 C 17,2 C 16,1 C 71 % 1007,4 hPa 0,0 l/m 0 min 0 min 0 W/m 9,7 km/h (2 Bft) 95,74 %
14.10.2018 22:56 18,3 C 17,2 C 16,1 C 71 % 1007,4 hPa 0,0 l/m 0 min 0 min 0 W/m 6,4 km/h (2 Bft) 95,74 %
14.10.2018 22:58 18,2 C 17,2 C 16,1 C 71 % 1007,5 hPa 0,0 l/m 0 min 0 min 0 W/m 9,7 km/h (2 Bft) 95,65 %
14.10.2018 23:00 18,2 C 17,2 C 16,1 C 71 % 1007,5 hPa 0,0 l/m 0 min 0 min 0 W/m 12,9 km/h (3 Bft) 95,74 %
14.10.2018 23:02 18,2 C 16,7 C 16,1 C 71 % 1007,5 hPa 0,0 l/m 0 min 0 min 0 W/m 9,7 km/h (2 Bft) 95,83 %
14.10.2018 23:04 18,2 C 17,2 C 16,1 C 71 % 1007,5 hPa 0,0 l/m 0 min 0 min 0 W/m 12,9 km/h (3 Bft) 95,74 %
14.10.2018 23:08 18,1 C 17,2 C 16,1 C 72 % 1007,5 hPa 0,0 l/m 0 min 0 min 0 W/m 9,7 km/h (2 Bft) 93,62 %
14.10.2018 23:10 18,1 C 16,7 C 16,1 C 72 % 1007,5 hPa 0,0 l/m 0 min 0 min 0 W/m 6,4 km/h (2 Bft) 95,74 %
14.10.2018 23:12 18,1 C 17,2 C 16,1 C 72 % 1007,5 hPa 0,0 l/m 0 min 0 min 0 W/m 19,3 km/h (3 Bft) 93,62 %
14.10.2018 23:14 18,0 C 17,2 C 16,1 C 72 % 1007,5 hPa 0,0 l/m 0 min 0 min 0 W/m 12,9 km/h (3 Bft) 95,65 %
14.10.2018 23:16 18,0 C 17,2 C 16,1 C 72 % 1007,6 hPa 0,0 l/m 0 min 0 min 0 W/m 9,7 km/h (2 Bft) 95,83 %
14.10.2018 23:18 18,0 C 17,2 C 16,1 C 72 % 1007,6 hPa 0,0 l/m 0 min 0 min 0 W/m 16,1 km/h (3 Bft) 95,74 %
14.10.2018 23:20 17,9 C 17,2 C 16,1 C 72 % 1007,6 hPa 0,0 l/m 0 min 0 min 0 W/m 9,7 km/h (2 Bft) 97,87 %
14.10.2018 23:22 17,9 C 17,2 C 16,1 C 72 % 1007,7 hPa 0,0 l/m 0 min 0 min 0 W/m 9,7 km/h (2 Bft) 97,87 %
14.10.2018 23:24 17,9 C 17,2 C 16,1 C 72 % 1007,6 hPa 0,0 l/m 0 min 0 min 0 W/m 9,7 km/h (2 Bft) 97,83 %
14.10.2018 23:26 17,9 C 17,2 C 16,1 C 72 % 1007,6 hPa 0,0 l/m 0 min 0 min 0 W/m 9,7 km/h (2 Bft) 95,74 %
14.10.2018 23:28 17,9 C 17,2 C 16,1 C 72 % 1007,6 hPa 0,0 l/m 0 min 0 min 0 W/m 9,7 km/h (2 Bft) 97,87 %
14.10.2018 23:30 17,9 C 17,2 C 16,1 C 72 % 1007,6 hPa 0,0 l/m 0 min 0 min 0 W/m 9,7 km/h (2 Bft) 97,87 %
14.10.2018 23:32 17,9 C 17,2 C 16,1 C 72 % 1007,6 hPa 0,0 l/m 0 min 0 min 0 W/m 12,9 km/h (3 Bft) 97,87 %
14.10.2018 23:34 17,9 C 17,2 C 16,1 C 72 % 1007,6 hPa 0,0 l/m 0 min 0 min 0 W/m 9,7 km/h (2 Bft) 95,74 %
14.10.2018 23:38 17,8 C 17,2 C 16,1 C 72 % 1007,7 hPa 0,0 l/m 0 min 0 min 0 W/m 12,9 km/h (3 Bft) 97,85 %
14.10.2018 23:40 17,8 C 17,2 C 16,1 C 72 % 1007,6 hPa 0,0 l/m 0 min 0 min 0 W/m 9,7 km/h (2 Bft) 97,87 %
14.10.2018 23:42 17,8 C 16,7 C 16,1 C 72 % 1007,7 hPa 0,0 l/m 0 min 0 min 0 W/m 16,1 km/h (3 Bft) 97,87 %
14.10.2018 23:44 17,8 C 16,7 C 16,1 C 72 % 1007,6 hPa 0,0 l/m 0 min 0 min 0 W/m 16,1 km/h (3 Bft) 97,87 %
14.10.2018 23:46 17,8 C 16,7 C 16,1 C 72 % 1007,7 hPa 0,0 l/m 0 min 0 min 0 W/m 9,7 km/h (2 Bft) 97,92 %
14.10.2018 23:48 17,8 C 16,7 C 16,1 C 72 % 1007,7 hPa 0,0 l/m 0 min 0 min 0 W/m 6,4 km/h (2 Bft) 97,83 %
14.10.2018 23:50 17,8 C 16,7 C 16,1 C 72 % 1007,7 hPa 0,0 l/m 0 min 0 min 0 W/m 9,7 km/h (2 Bft) 95,74 %
14.10.2018 23:52 17,8 C 16,7 C 16,1 C 72 % 1007,7 hPa 0,0 l/m 0 min 0 min 0 W/m 16,1 km/h (3 Bft) 97,87 %
14.10.2018 23:54 17,8 C 16,7 C 16,1 C 72 % 1007,7 hPa 0,0 l/m 0 min 0 min 0 W/m 6,4 km/h (2 Bft) 100,00 %
14.10.2018 23:56 17,8 C 16,7 C 16,1 C 72 % 1007,8 hPa 0,0 l/m 0 min 0 min 0 W/m 6,4 km/h (2 Bft) 100,00 %
14.10.2018 23:58 17,7 C 16,7 C 16,1 C 72 % 1007,7 hPa 0,0 l/m 0 min 0 min 0 W/m 9,7 km/h (2 Bft) 100,00 %
_ Min-Zeit 08:20 04:00 04:08 14:58 16:00 - - - - 00:18 10:22
Minimum _ 15,6 C 15,0 C 14,4 C 51 % 1005,6 hPa - - - - 0,0 km/h (0 Bft) 91,43 %
_ Max-Zeit 14:42 11:54 14:18 08:42 00:04 00:00 12:08 00:00 13:54 15:30 00:12
Maximum _ 26,2 C 29,4 C 23,3 C 79 % 1012,0 hPa 0,0 l/m 4 min 0 min 548 W/m 38,6 km/h
S-SO (5 Bft)
100,00 %
Durchschnitt _ 19,9 C 19,8 C 17,4 C 68 % 1008,1 hPa #0,0 l/m #4:00 h #0 min. 175 W/m 13,5 km/h (3 Bft) 97,57 %
© 2018 W. Hausmann